PWSweather.com
Personal Weather Stations
Station Observations
OZIERI
Punta Idda, OzieriIT

Punta IddaOzieriIT

Lat: 40.584142, Lon: 9.007657999999992

Elevation: 1483

Station Type: Lacrosse ws2350

Latest ConditionsUpdated 9:48:40 PM GMT+01:01 Wednesday, Apr 24, 2019
Currently Today's Max Today's Min Today's Average
Temperature 59.2°F15.1°C 67.6°F19.8°C 51.6°F10.9°C 59.1°F15.1°C
Dew Point 50.2°F10.1°C 54.9°F12.7°C 44.2°F6.8°C 49.8°F9.9°C
Winds 1.1 mph SSW1.8 kmh SSW 8.5 mph -13.7 kmh - - 3.2 mph 5.1 kmh
Wind Gusts 1.8 mph2.9 kmh 12.1 mph19.5 kmh - -
Humidity 72% 83% 54% 72%
Pressure 30.03 in1016.9 mb 30.04 in1017.3 mb 29.83 in1010.2 mb -
Hour Temp Dew Point Humidity Winds Wind Gusts Pressure Precip Precip Rate Daily Precip Total
09:48 PM 59.2°F15.1°C 50.2°F10.1°C 72% 1.1 mph SSW1.8 kmh SSW 1.8 mph2.9 kmh 30.03 in1016.9 mb 0.00 in0.0 mm 0.00 in0.0 mm 0.00 in0.0 mm
09:46 PM 59.2°F15.1°C 50.2°F10.1°C 72% 0.9 mph S1.4 kmh S 1.8 mph2.9 kmh 30.03 in1016.9 mb 0.00 in0.0 mm 0.00 in0.0 mm 0.00 in0.0 mm
09:44 PM 59.0°F15.0°C 50.0°F10.0°C 72% 0.9 mph WSW1.4 kmh WSW 2.9 mph4.7 kmh 30.03 in1016.9 mb 0.00 in0.0 mm 0.00 in0.0 mm 0.00 in0.0 mm
09:41 PM 59.0°F15.0°C 50.0°F10.0°C 72% 0.2 mph W0.3 kmh W 0.9 mph1.4 kmh 30.03 in1016.9 mb 0.00 in0.0 mm 0.00 in0.0 mm 0.00 in0.0 mm
09:39 PM 59.2°F15.1°C 50.2°F10.1°C 72% 0.2 mph SW0.3 kmh SW -- 30.02 in1016.6 mb 0.00 in0.0 mm 0.00 in0.0 mm 0.00 in0.0 mm
09:37 PM 59.2°F15.1°C 50.2°F10.1°C 72% 0.2 mph SW0.3 kmh SW -- 30.02 in1016.6 mb 0.00 in0.0 mm 0.00 in0.0 mm 0.00 in0.0 mm
09:35 PM 59.2°F15.1°C 50.2°F10.1°C 72% 0.2 mph ESE0.3 kmh ESE -- 30.02 in1016.6 mb 0.00 in0.0 mm 0.00 in0.0 mm 0.00 in0.0 mm
09:33 PM 59.4°F15.2°C 50.4°F10.2°C 72% 0.4 mph SE0.6 kmh SE 0.7 mph1.1 kmh 30.02 in1016.6 mb 0.00 in0.0 mm 0.00 in0.0 mm 0.00 in0.0 mm
09:30 PM 59.4°F15.2°C 50.4°F10.2°C 72% 0.2 mph SE0.3 kmh SE 0.7 mph1.1 kmh 30.02 in1016.6 mb 0.00 in0.0 mm 0.00 in0.0 mm 0.00 in0.0 mm
09:28 PM 59.4°F15.2°C 50.4°F10.2°C 72% 0.2 mph WSW0.3 kmh WSW 0.7 mph1.1 kmh 30.02 in1016.6 mb 0.00 in0.0 mm 0.00 in0.0 mm 0.00 in0.0 mm
09:26 PM 59.2°F15.1°C 50.5°F10.3°C 73% 0.2 mph SSW0.3 kmh SSW 1.1 mph1.8 kmh 30.02 in1016.6 mb 0.00 in0.0 mm 0.00 in0.0 mm 0.00 in0.0 mm
09:23 PM 59.2°F15.1°C 50.5°F10.3°C 73% 0.4 mph W0.6 kmh W 1.1 mph1.8 kmh 30.02 in1016.6 mb 0.00 in0.0 mm 0.00 in0.0 mm 0.00 in0.0 mm
09:21 PM 59.0°F15.0°C 50.4°F10.2°C 73% 0.2 mph NNW0.3 kmh NNW -- 30.02 in1016.6 mb 0.00 in0.0 mm 0.00 in0.0 mm 0.00 in0.0 mm
09:19 PM 58.8°F14.9°C 50.2°F10.1°C 73% 0.2 mph SW0.3 kmh SW -- 30.02 in1016.6 mb 0.00 in0.0 mm 0.00 in0.0 mm 0.00 in0.0 mm
09:17 PM 58.8°F14.9°C 50.2°F10.1°C 73% 0.2 mph SSE0.3 kmh SSE -- 30.02 in1016.6 mb 0.00 in0.0 mm 0.00 in0.0 mm 0.00 in0.0 mm
09:15 PM 59.0°F15.0°C 50.4°F10.2°C 73% 0.4 mph NNE0.6 kmh NNE -- 30.02 in1016.6 mb 0.00 in0.0 mm 0.00 in0.0 mm 0.00 in0.0 mm
09:13 PM 59.2°F15.1°C 50.5°F10.3°C 73% 1.1 mph ENE1.8 kmh ENE 0.9 mph1.4 kmh 30.02 in1016.6 mb 0.00 in0.0 mm 0.00 in0.0 mm 0.00 in0.0 mm
09:10 PM 59.2°F15.1°C 50.5°F10.3°C 73% 1.6 mph ESE2.6 kmh ESE 2.0 mph3.2 kmh 30.02 in1016.6 mb 0.00 in0.0 mm 0.00 in0.0 mm 0.00 in0.0 mm
09:08 PM 59.2°F15.1°C 50.5°F10.3°C 73% 2.5 mph ESE4.0 kmh ESE 2.9 mph4.7 kmh 30.02 in1016.6 mb 0.00 in0.0 mm 0.00 in0.0 mm 0.00 in0.0 mm
09:06 PM 59.4°F15.2°C 50.7°F10.4°C 73% 2.5 mph SE4.0 kmh SE 3.8 mph6.1 kmh 30.02 in1016.6 mb 0.00 in0.0 mm 0.00 in0.0 mm 0.00 in0.0 mm
09:04 PM 59.4°F15.2°C 50.7°F10.4°C 73% 1.3 mph E2.1 kmh E 2.5 mph4.0 kmh 30.02 in1016.6 mb 0.00 in0.0 mm 0.00 in0.0 mm 0.00 in0.0 mm
09:01 PM 59.4°F15.2°C 50.7°F10.4°C 73% 0.7 mph SE1.1 kmh SE 2.5 mph4.0 kmh 30.02 in1016.6 mb 0.00 in0.0 mm 0.00 in0.0 mm 0.00 in0.0 mm
08:59 PM 59.5°F15.3°C 50.9°F10.5°C 73% 0.2 mph SE0.3 kmh SE -- 30.02 in1016.6 mb 0.00 in0.0 mm 0.00 in0.0 mm 0.00 in0.0 mm
08:57 PM 59.5°F15.3°C 50.9°F10.5°C 73% 0.4 mph ESE0.6 kmh ESE -- 30.03 in1016.9 mb 0.00 in0.0 mm 0.00 in0.0 mm 0.00 in0.0 mm
08:55 PM 59.5°F15.3°C 50.5°F10.3°C 72% 0.9 mph NW1.4 kmh NW 1.3 mph2.1 kmh 30.03 in1016.9 mb 0.00 in0.0 mm 0.00 in0.0 mm 0.00 in0.0 mm
08:52 PM 59.5°F15.3°C 50.5°F10.3°C 72% 1.3 mph WSW2.1 kmh WSW 2.9 mph4.7 kmh 30.03 in1016.9 mb 0.00 in0.0 mm 0.00 in0.0 mm 0.00 in0.0 mm
08:50 PM 59.5°F15.3°C 50.5°F10.3°C 72% 1.3 mph W2.1 kmh W 2.5 mph4.0 kmh 30.03 in1016.9 mb 0.00 in0.0 mm 0.00 in0.0 mm 0.00 in0.0 mm
08:48 PM 59.5°F15.3°C 50.9°F10.5°C 73% 1.3 mph WSW2.1 kmh WSW 2.2 mph3.5 kmh 30.02 in1016.6 mb 0.00 in0.0 mm 0.00 in0.0 mm 0.00 in0.0 mm
08:46 PM 59.5°F15.3°C 50.9°F10.5°C 73% 1.1 mph NW1.8 kmh NW 2.0 mph3.2 kmh 30.03 in1016.9 mb 0.00 in0.0 mm 0.00 in0.0 mm 0.00 in0.0 mm
08:44 PM 59.5°F15.3°C 50.9°F10.5°C 73% 1.6 mph NW2.6 kmh NW 3.6 mph5.8 kmh 30.02 in1016.6 mb 0.00 in0.0 mm 0.00 in0.0 mm 0.00 in0.0 mm
08:42 PM 59.5°F15.3°C 50.9°F10.5°C 73% 0.7 mph WSW1.1 kmh WSW 1.1 mph1.8 kmh 30.02 in1016.6 mb 0.00 in0.0 mm 0.00 in0.0 mm 0.00 in0.0 mm
08:40 PM 59.5°F15.3°C 50.9°F10.5°C 73% 0.9 mph SE1.4 kmh SE 1.8 mph2.9 kmh 30.02 in1016.6 mb 0.00 in0.0 mm 0.00 in0.0 mm 0.00 in0.0 mm
08:38 PM 59.5°F15.3°C 50.9°F10.5°C 73% 1.1 mph SSE1.8 kmh SSE 2.7 mph4.3 kmh 30.01 in1016.3 mb 0.00 in0.0 mm 0.00 in0.0 mm 0.00 in0.0 mm
08:36 PM 59.4°F15.2°C 50.7°F10.4°C 73% 1.3 mph NNW2.1 kmh NNW 2.7 mph4.3 kmh 30.01 in1016.3 mb 0.00 in0.0 mm 0.00 in0.0 mm 0.00 in0.0 mm
08:33 PM 59.4°F15.2°C 51.1°F10.6°C 74% 0.7 mph WNW1.1 kmh WNW 1.6 mph2.6 kmh 30.01 in1016.3 mb 0.00 in0.0 mm 0.00 in0.0 mm 0.00 in0.0 mm
08:31 PM 59.4°F15.2°C 51.1°F10.6°C 74% 0.7 mph WSW1.1 kmh WSW 1.3 mph2.1 kmh 30.01 in1016.3 mb 0.00 in0.0 mm 0.00 in0.0 mm 0.00 in0.0 mm
08:29 PM 59.5°F15.3°C 51.6°F10.9°C 75% 0.4 mph WNW0.6 kmh WNW 0.7 mph1.1 kmh 30.01 in1016.3 mb 0.00 in0.0 mm 0.00 in0.0 mm 0.00 in0.0 mm
08:27 PM 59.5°F15.3°C 51.6°F10.9°C 75% 0.9 mph ENE1.4 kmh ENE 1.8 mph2.9 kmh 30.01 in1016.3 mb 0.00 in0.0 mm 0.00 in0.0 mm 0.00 in0.0 mm
08:24 PM 59.5°F15.3°C 51.6°F10.9°C 75% 0.9 mph ESE1.4 kmh ESE 1.3 mph2.1 kmh 30.00 in1015.9 mb 0.00 in0.0 mm 0.00 in0.0 mm 0.00 in0.0 mm
08:22 PM 59.5°F15.3°C 51.6°F10.9°C 75% 1.1 mph ESE1.8 kmh ESE 1.8 mph2.9 kmh 30.00 in1015.9 mb 0.00 in0.0 mm 0.00 in0.0 mm 0.00 in0.0 mm
08:20 PM 59.5°F15.3°C 51.6°F10.9°C 75% 1.8 mph S2.9 kmh S 3.4 mph5.5 kmh 30.00 in1015.9 mb 0.00 in0.0 mm 0.00 in0.0 mm 0.00 in0.0 mm
08:18 PM 59.2°F15.1°C 51.6°F10.9°C 76% 2.0 mph NE3.2 kmh NE 3.6 mph5.8 kmh 30.00 in1015.9 mb 0.00 in0.0 mm 0.00 in0.0 mm 0.00 in0.0 mm
08:15 PM 59.0°F15.0°C 51.4°F10.8°C 76% 2.2 mph SSE3.5 kmh SSE 6.3 mph10.1 kmh 30.00 in1015.9 mb 0.00 in0.0 mm 0.00 in0.0 mm 0.00 in0.0 mm
08:13 PM 58.8°F14.9°C 51.3°F10.7°C 76% 2.9 mph E4.7 kmh E 5.1 mph8.2 kmh 30.00 in1015.9 mb 0.00 in0.0 mm 0.00 in0.0 mm 0.00 in0.0 mm
08:11 PM 58.6°F14.8°C 51.1°F10.6°C 76% 2.2 mph ESE3.5 kmh ESE 3.4 mph5.5 kmh 30.00 in1015.9 mb 0.00 in0.0 mm 0.00 in0.0 mm 0.00 in0.0 mm
08:09 PM 58.6°F14.8°C 51.1°F10.6°C 76% 1.8 mph ESE2.9 kmh ESE 3.6 mph5.8 kmh 30.00 in1015.9 mb 0.00 in0.0 mm 0.00 in0.0 mm 0.00 in0.0 mm
08:06 PM 58.6°F14.8°C 51.1°F10.6°C 76% 1.1 mph E1.8 kmh E 2.0 mph3.2 kmh 30.00 in1015.9 mb 0.00 in0.0 mm 0.00 in0.0 mm 0.00 in0.0 mm
08:04 PM 58.6°F14.8°C 51.1°F10.6°C 76% 1.1 mph E1.8 kmh E 2.0 mph3.2 kmh 30.00 in1015.9 mb 0.00 in0.0 mm 0.00 in0.0 mm 0.00 in0.0 mm
08:02 PM 58.6°F14.8°C 51.1°F10.6°C 76% 1.1 mph SSE1.8 kmh SSE 0.9 mph1.4 kmh 30.00 in1015.9 mb 0.00 in0.0 mm 0.00 in0.0 mm 0.00 in0.0 mm
08:00 PM 58.8°F14.9°C 51.3°F10.7°C 76% 1.8 mph NNE2.9 kmh NNE 1.6 mph2.6 kmh 30.00 in1015.9 mb 0.00 in0.0 mm 0.00 in0.0 mm 0.00 in0.0 mm
07:57 PM 58.8°F14.9°C 51.3°F10.7°C 76% 3.4 mph ESE5.5 kmh ESE 7.2 mph11.6 kmh 30.00 in1015.9 mb 0.00 in0.0 mm 0.00 in0.0 mm 0.00 in0.0 mm
07:55 PM 58.8°F14.9°C 51.3°F10.7°C 76% 3.6 mph NE5.8 kmh NE 5.4 mph8.7 kmh 30.00 in1015.9 mb 0.00 in0.0 mm 0.00 in0.0 mm 0.00 in0.0 mm
07:53 PM 58.8°F14.9°C 51.3°F10.7°C 76% 4.3 mph ESE6.9 kmh ESE 7.4 mph11.9 kmh 30.00 in1015.9 mb 0.00 in0.0 mm 0.00 in0.0 mm 0.00 in0.0 mm
07:51 PM 58.8°F14.9°C 50.9°F10.5°C 75% 3.8 mph ESE6.1 kmh ESE 6.7 mph10.8 kmh 30.01 in1016.3 mb 0.00 in0.0 mm 0.00 in0.0 mm 0.00 in0.0 mm
07:49 PM 58.8°F14.9°C 50.9°F10.5°C 75% 2.2 mph ESE3.5 kmh ESE 5.1 mph8.2 kmh 30.01 in1016.3 mb 0.00 in0.0 mm 0.00 in0.0 mm 0.00 in0.0 mm
07:47 PM 59.0°F15.0°C 51.1°F10.6°C 75% 0.9 mph ESE1.4 kmh ESE 2.2 mph3.5 kmh 30.02 in1016.6 mb 0.00 in0.0 mm 0.00 in0.0 mm 0.00 in0.0 mm
07:44 PM 59.2°F15.1°C 51.3°F10.7°C 75% 0.7 mph SSE1.1 kmh SSE 1.3 mph2.1 kmh 30.02 in1016.6 mb 0.00 in0.0 mm 0.00 in0.0 mm 0.00 in0.0 mm
07:42 PM 59.2°F15.1°C 51.3°F10.7°C 75% 0.9 mph NNE1.4 kmh NNE 1.6 mph2.6 kmh 30.02 in1016.6 mb 0.00 in0.0 mm 0.00 in0.0 mm 0.00 in0.0 mm
07:40 PM 59.4°F15.2°C 51.4°F10.8°C 75% 0.9 mph WNW1.4 kmh WNW 2.5 mph4.0 kmh 30.02 in1016.6 mb 0.00 in0.0 mm 0.00 in0.0 mm 0.00 in0.0 mm
07:38 PM 59.5°F15.3°C 51.6°F10.9°C 75% 0.4 mph W0.6 kmh W 0.7 mph1.1 kmh 30.02 in1016.6 mb 0.00 in0.0 mm 0.00 in0.0 mm 0.00 in0.0 mm
07:35 PM 59.5°F15.3°C 51.6°F10.9°C 75% 0.4 mph NW0.6 kmh NW 1.8 mph2.9 kmh 30.02 in1016.6 mb 0.00 in0.0 mm 0.00 in0.0 mm 0.00 in0.0 mm
07:33 PM 59.5°F15.3°C 51.6°F10.9°C 75% 0.7 mph W1.1 kmh W 2.0 mph3.2 kmh 30.02 in1016.6 mb 0.00 in0.0 mm 0.00 in0.0 mm 0.00 in0.0 mm
07:31 PM 59.5°F15.3°C 51.6°F10.9°C 75% 0.4 mph WSW0.6 kmh WSW 0.9 mph1.4 kmh 30.01 in1016.3 mb 0.00 in0.0 mm 0.00 in0.0 mm 0.00 in0.0 mm
07:29 PM 59.5°F15.3°C 51.3°F10.7°C 74% 0.4 mph 0.6 kmh 1.3 mph2.1 kmh 30.01 in1016.3 mb 0.00 in0.0 mm 0.00 in0.0 mm 0.00 in0.0 mm
07:27 PM 59.5°F15.3°C 51.3°F10.7°C 74% 0.2 mph W0.3 kmh W 0.9 mph1.4 kmh 30.01 in1016.3 mb 0.00 in0.0 mm 0.00 in0.0 mm 0.00 in0.0 mm
07:24 PM 59.5°F15.3°C 51.3°F10.7°C 74% 0.4 mph 0.6 kmh 1.3 mph2.1 kmh 30.01 in1016.3 mb 0.00 in0.0 mm 0.00 in0.0 mm 0.00 in0.0 mm
07:22 PM 59.5°F15.3°C 51.3°F10.7°C 74% 0.4 mph NNW0.6 kmh NNW 1.3 mph2.1 kmh 30.01 in1016.3 mb 0.00 in0.0 mm 0.00 in0.0 mm 0.00 in0.0 mm
07:20 PM 59.5°F15.3°C 51.3°F10.7°C 74% 0.4 mph 0.6 kmh 2.0 mph3.2 kmh 30.01 in1016.3 mb 0.00 in0.0 mm 0.00 in0.0 mm 0.00 in0.0 mm
07:18 PM 59.5°F15.3°C 51.3°F10.7°C 74% 0.4 mph NW0.6 kmh NW 0.9 mph1.4 kmh 30.01 in1016.3 mb 0.00 in0.0 mm 0.00 in0.0 mm 0.00 in0.0 mm
07:15 PM 59.5°F15.3°C 50.9°F10.5°C 73% 0.4 mph NNE0.6 kmh NNE -- 30.01 in1016.3 mb 0.00 in0.0 mm 0.00 in0.0 mm 0.00 in0.0 mm
07:13 PM 59.5°F15.3°C 50.9°F10.5°C 73% 0.7 mph W1.1 kmh W 2.5 mph4.0 kmh 30.01 in1016.3 mb 0.00 in0.0 mm 0.00 in0.0 mm 0.00 in0.0 mm
07:11 PM 59.7°F15.4°C 51.1°F10.6°C 73% 1.1 mph NNE1.8 kmh NNE 3.6 mph5.8 kmh 30.01 in1016.3 mb 0.00 in0.0 mm 0.00 in0.0 mm 0.00 in0.0 mm
07:09 PM 59.7°F15.4°C 51.1°F10.6°C 73% 0.7 mph ENE1.1 kmh ENE 2.0 mph3.2 kmh 30.00 in1015.9 mb 0.00 in0.0 mm 0.00 in0.0 mm 0.00 in0.0 mm
07:06 PM 59.7°F15.4°C 51.1°F10.6°C 73% 0.7 mph NNE1.1 kmh NNE 1.6 mph2.6 kmh 30.00 in1015.9 mb 0.00 in0.0 mm 0.00 in0.0 mm 0.00 in0.0 mm
07:04 PM 59.7°F15.4°C 51.1°F10.6°C 73% 0.4 mph ESE0.6 kmh ESE 1.1 mph1.8 kmh 30.01 in1016.3 mb 0.00 in0.0 mm 0.00 in0.0 mm 0.00 in0.0 mm
07:02 PM 59.7°F15.4°C 51.1°F10.6°C 73% 0.4 mph NNE0.6 kmh NNE 1.3 mph2.1 kmh 30.01 in1016.3 mb 0.00 in0.0 mm 0.00 in0.0 mm 0.00 in0.0 mm
07:00 PM 59.7°F15.4°C 51.1°F10.6°C 73% 0.4 mph SW0.6 kmh SW 1.3 mph2.1 kmh 30.01 in1016.3 mb 0.00 in0.0 mm 0.00 in0.0 mm 0.00 in0.0 mm
06:58 PM 59.7°F15.4°C 51.1°F10.6°C 73% 0.2 mph E0.3 kmh E -- 30.01 in1016.3 mb 0.00 in0.0 mm 0.00 in0.0 mm 0.00 in0.0 mm
06:55 PM 59.5°F15.3°C 50.9°F10.5°C 73% 0.4 mph WSW0.6 kmh WSW 0.9 mph1.4 kmh 30.01 in1016.3 mb 0.00 in0.0 mm 0.00 in0.0 mm 0.00 in0.0 mm
06:53 PM 59.7°F15.4°C 51.1°F10.6°C 73% 0.4 mph NE0.6 kmh NE 1.3 mph2.1 kmh 30.01 in1016.3 mb 0.00 in0.0 mm 0.00 in0.0 mm 0.00 in0.0 mm
06:51 PM 59.7°F15.4°C 51.1°F10.6°C 73% 0.7 mph E1.1 kmh E 1.1 mph1.8 kmh 30.01 in1016.3 mb 0.00 in0.0 mm 0.00 in0.0 mm 0.00 in0.0 mm
06:49 PM 59.9°F15.5°C 51.3°F10.7°C 73% 1.1 mph ENE1.8 kmh ENE 2.5 mph4.0 kmh 30.01 in1016.3 mb 0.00 in0.0 mm 0.00 in0.0 mm 0.00 in0.0 mm
06:47 PM 59.9°F15.5°C 51.3°F10.7°C 73% 1.1 mph ESE1.8 kmh ESE 2.0 mph3.2 kmh 30.01 in1016.3 mb 0.00 in0.0 mm 0.00 in0.0 mm 0.00 in0.0 mm
06:45 PM 60.1°F15.6°C 51.4°F10.8°C 73% 0.7 mph SE1.1 kmh SE 1.6 mph2.6 kmh 30.01 in1016.3 mb 0.00 in0.0 mm 0.00 in0.0 mm 0.00 in0.0 mm
06:43 PM 60.1°F15.6°C 51.4°F10.8°C 73% 0.7 mph SW1.1 kmh SW 1.3 mph2.1 kmh 30.01 in1016.3 mb 0.00 in0.0 mm 0.00 in0.0 mm 0.00 in0.0 mm
06:40 PM 60.1°F15.6°C 51.1°F10.6°C 72% 0.9 mph W1.4 kmh W 2.0 mph3.2 kmh 30.01 in1016.3 mb 0.00 in0.0 mm 0.00 in0.0 mm 0.00 in0.0 mm
06:38 PM 60.1°F15.6°C 51.1°F10.6°C 72% 0.4 mph SE0.6 kmh SE 0.9 mph1.4 kmh 30.01 in1016.3 mb 0.00 in0.0 mm 0.00 in0.0 mm 0.00 in0.0 mm
06:36 PM 60.1°F15.6°C 51.1°F10.6°C 72% 0.7 mph SE1.1 kmh SE 1.1 mph1.8 kmh 30.01 in1016.3 mb 0.00 in0.0 mm 0.00 in0.0 mm 0.00 in0.0 mm
06:34 PM 60.1°F15.6°C 51.1°F10.6°C 72% 0.9 mph SE1.4 kmh SE 3.8 mph6.1 kmh 30.02 in1016.6 mb 0.00 in0.0 mm 0.00 in0.0 mm 0.00 in0.0 mm
06:32 PM 60.1°F15.6°C 51.1°F10.6°C 72% 0.7 mph WSW1.1 kmh WSW 1.6 mph2.6 kmh 30.02 in1016.6 mb 0.00 in0.0 mm 0.00 in0.0 mm 0.00 in0.0 mm
06:29 PM 60.1°F15.6°C 51.1°F10.6°C 72% 0.9 mph SSE1.4 kmh SSE 1.1 mph1.8 kmh 30.02 in1016.6 mb 0.00 in0.0 mm 0.00 in0.0 mm 0.00 in0.0 mm
06:27 PM 60.1°F15.6°C 51.1°F10.6°C 72% 1.8 mph NW2.9 kmh NW 3.6 mph5.8 kmh 30.02 in1016.6 mb 0.00 in0.0 mm 0.00 in0.0 mm 0.00 in0.0 mm
06:25 PM 60.3°F15.7°C 51.3°F10.7°C 72% 1.8 mph SW2.9 kmh SW 3.6 mph5.8 kmh 30.02 in1016.6 mb 0.00 in0.0 mm 0.00 in0.0 mm 0.00 in0.0 mm
06:23 PM 60.4°F15.8°C 51.1°F10.6°C 71% 1.6 mph ENE2.6 kmh ENE 2.0 mph3.2 kmh 30.02 in1016.6 mb 0.00 in0.0 mm 0.00 in0.0 mm 0.00 in0.0 mm
06:20 PM 60.4°F15.8°C 51.1°F10.6°C 71% 2.5 mph WNW4.0 kmh WNW 5.1 mph8.2 kmh 30.02 in1016.6 mb 0.00 in0.0 mm 0.00 in0.0 mm 0.00 in0.0 mm
06:18 PM 60.6°F15.9°C 51.1°F10.6°C 71% 2.7 mph WSW4.3 kmh WSW 3.8 mph6.1 kmh 30.02 in1016.6 mb 0.00 in0.0 mm 0.00 in0.0 mm 0.00 in0.0 mm
06:16 PM 60.6°F15.9°C 51.1°F10.6°C 71% 2.5 mph 4.0 kmh 3.4 mph5.5 kmh 30.02 in1016.6 mb 0.00 in0.0 mm 0.00 in0.0 mm 0.00 in0.0 mm
06:14 PM 60.8°F16.0°C 50.9°F10.5°C 70% 3.1 mph W5.0 kmh W 5.6 mph9.0 kmh 30.01 in1016.3 mb 0.00 in0.0 mm 0.00 in0.0 mm 0.00 in0.0 mm
06:12 PM 60.8°F16.0°C 50.9°F10.5°C 70% 2.5 mph W4.0 kmh W 4.0 mph6.4 kmh 30.02 in1016.6 mb 0.00 in0.0 mm 0.00 in0.0 mm 0.00 in0.0 mm
06:10 PM 61.0°F16.1°C 51.1°F10.6°C 70% 2.5 mph WNW4.0 kmh WNW 3.6 mph5.8 kmh 30.01 in1016.3 mb 0.00 in0.0 mm 0.00 in0.0 mm 0.00 in0.0 mm
06:07 PM 61.2°F16.2°C 51.3°F10.7°C 70% 2.2 mph W3.5 kmh W 5.6 mph9.0 kmh 30.01 in1016.3 mb 0.00 in0.0 mm 0.00 in0.0 mm 0.00 in0.0 mm
06:05 PM 61.2°F16.2°C 51.3°F10.7°C 70% 1.6 mph 2.6 kmh 3.1 mph5.0 kmh 30.02 in1016.6 mb 0.00 in0.0 mm 0.00 in0.0 mm 0.00 in0.0 mm
06:03 PM 61.3°F16.3°C 51.4°F10.8°C 70% 2.2 mph WNW3.5 kmh WNW 4.0 mph6.4 kmh 30.02 in1016.6 mb 0.00 in0.0 mm 0.00 in0.0 mm 0.00 in0.0 mm
06:01 PM 61.3°F16.3°C 51.1°F10.6°C 69% 2.0 mph WSW3.2 kmh WSW 3.1 mph5.0 kmh 30.02 in1016.6 mb 0.00 in0.0 mm 0.00 in0.0 mm 0.00 in0.0 mm
05:59 PM 61.5°F16.4°C 51.3°F10.7°C 69% 1.3 mph WSW2.1 kmh WSW 2.5 mph4.0 kmh 30.02 in1016.6 mb 0.00 in0.0 mm 0.00 in0.0 mm 0.00 in0.0 mm
05:57 PM 61.5°F16.4°C 51.3°F10.7°C 69% 1.3 mph WNW2.1 kmh WNW 3.1 mph5.0 kmh 30.02 in1016.6 mb 0.00 in0.0 mm 0.00 in0.0 mm 0.00 in0.0 mm
05:54 PM 61.7°F16.5°C 51.1°F10.6°C 68% 1.8 mph WSW2.9 kmh WSW 4.5 mph7.2 kmh 30.02 in1016.6 mb 0.00 in0.0 mm 0.00 in0.0 mm 0.00 in0.0 mm
05:52 PM 61.9°F16.6°C 51.3°F10.7°C 68% 1.3 mph W2.1 kmh W 1.6 mph2.6 kmh 30.02 in1016.6 mb 0.00 in0.0 mm 0.00 in0.0 mm 0.00 in0.0 mm
05:50 PM 61.9°F16.6°C 51.3°F10.7°C 68% 1.8 mph WSW2.9 kmh WSW 1.6 mph2.6 kmh 30.02 in1016.6 mb 0.00 in0.0 mm 0.00 in0.0 mm 0.00 in0.0 mm
05:48 PM 62.1°F16.7°C 51.4°F10.8°C 68% 2.7 mph W4.3 kmh W 4.9 mph7.9 kmh 30.02 in1016.6 mb 0.00 in0.0 mm 0.00 in0.0 mm 0.00 in0.0 mm
05:46 PM 62.4°F16.9°C 51.8°F11.0°C 68% 2.5 mph NW4.0 kmh NW 7.6 mph12.2 kmh 30.02 in1016.6 mb 0.00 in0.0 mm 0.00 in0.0 mm 0.00 in0.0 mm
05:43 PM 62.4°F16.9°C 51.8°F11.0°C 68% 1.3 mph WSW2.1 kmh WSW 2.9 mph4.7 kmh 30.01 in1016.3 mb 0.00 in0.0 mm 0.00 in0.0 mm 0.00 in0.0 mm
05:41 PM 62.4°F16.9°C 51.3°F10.7°C 67% 0.9 mph SSW1.4 kmh SSW 2.2 mph3.5 kmh 30.01 in1016.3 mb 0.00 in0.0 mm 0.00 in0.0 mm 0.00 in0.0 mm
05:39 PM 62.8°F17.1°C 51.6°F10.9°C 67% 0.7 mph WNW1.1 kmh WNW 1.3 mph2.1 kmh 30.01 in1016.3 mb 0.00 in0.0 mm 0.00 in0.0 mm 0.00 in0.0 mm
05:37 PM 62.8°F17.1°C 51.6°F10.9°C 67% 0.9 mph NW1.4 kmh NW 1.1 mph1.8 kmh 30.01 in1016.3 mb 0.00 in0.0 mm 0.00 in0.0 mm 0.00 in0.0 mm
05:34 PM 62.8°F17.1°C 51.6°F10.9°C 67% 1.3 mph SE2.1 kmh SE 2.5 mph4.0 kmh 30.01 in1016.3 mb 0.00 in0.0 mm 0.00 in0.0 mm 0.00 in0.0 mm
05:32 PM 63.0°F17.2°C 51.8°F11.0°C 67% 0.9 mph NNE1.4 kmh NNE 2.5 mph4.0 kmh 30.01 in1016.3 mb 0.00 in0.0 mm 0.00 in0.0 mm 0.00 in0.0 mm
05:30 PM 63.0°F17.2°C 51.8°F11.0°C 67% 1.1 mph W1.8 kmh W 1.6 mph2.6 kmh 30.01 in1016.3 mb 0.00 in0.0 mm 0.00 in0.0 mm 0.00 in0.0 mm
05:28 PM 63.0°F17.2°C 51.4°F10.8°C 66% 1.6 mph WNW2.6 kmh WNW 1.8 mph2.9 kmh 30.01 in1016.3 mb 0.00 in0.0 mm 0.00 in0.0 mm 0.00 in0.0 mm
05:25 PM 63.1°F17.3°C 51.6°F10.9°C 66% 2.0 mph WSW3.2 kmh WSW 5.6 mph9.0 kmh 30.01 in1016.3 mb 0.00 in0.0 mm 0.00 in0.0 mm 0.00 in0.0 mm
05:23 PM 63.1°F17.3°C 51.6°F10.9°C 66% 2.5 mph WNW4.0 kmh WNW 4.5 mph7.2 kmh 30.01 in1016.3 mb 0.00 in0.0 mm 0.00 in0.0 mm 0.00 in0.0 mm
05:21 PM 63.3°F17.4°C 51.8°F11.0°C 66% 2.0 mph NW3.2 kmh NW 2.5 mph4.0 kmh 30.01 in1016.3 mb 0.00 in0.0 mm 0.00 in0.0 mm 0.00 in0.0 mm
05:19 PM 63.5°F17.5°C 52.0°F11.1°C 66% 2.7 mph WSW4.3 kmh WSW 6.3 mph10.1 kmh 30.01 in1016.3 mb 0.00 in0.0 mm 0.00 in0.0 mm 0.00 in0.0 mm
05:16 PM 63.7°F17.6°C 51.6°F10.9°C 65% 2.5 mph NNW4.0 kmh NNW 4.0 mph6.4 kmh 30.01 in1016.3 mb 0.00 in0.0 mm 0.00 in0.0 mm 0.00 in0.0 mm
05:14 PM 63.7°F17.6°C 51.6°F10.9°C 65% 2.5 mph W4.0 kmh W 5.4 mph8.7 kmh 30.01 in1016.3 mb 0.00 in0.0 mm 0.00 in0.0 mm 0.00 in0.0 mm
05:12 PM 63.7°F17.6°C 51.6°F10.9°C 65% 2.5 mph NW4.0 kmh NW 3.1 mph5.0 kmh 30.01 in1016.3 mb 0.00 in0.0 mm 0.00 in0.0 mm 0.00 in0.0 mm
05:10 PM 64.0°F17.8°C 51.6°F10.9°C 64% 2.5 mph NW4.0 kmh NW 4.7 mph7.6 kmh 30.01 in1016.3 mb 0.00 in0.0 mm 0.00 in0.0 mm 0.00 in0.0 mm
05:08 PM 64.2°F17.9°C 52.2°F11.2°C 65% 2.0 mph WNW3.2 kmh WNW 4.3 mph6.9 kmh 30.01 in1016.3 mb 0.00 in0.0 mm 0.00 in0.0 mm 0.00 in0.0 mm
05:05 PM 64.2°F17.9°C 51.8°F11.0°C 64% 1.8 mph NNE2.9 kmh NNE 5.1 mph8.2 kmh 30.01 in1016.3 mb 0.00 in0.0 mm 0.00 in0.0 mm 0.00 in0.0 mm
05:03 PM 64.2°F17.9°C 51.8°F11.0°C 64% 2.5 mph W4.0 kmh W 3.8 mph6.1 kmh 30.01 in1016.3 mb 0.00 in0.0 mm 0.00 in0.0 mm 0.00 in0.0 mm
05:01 PM 64.2°F17.9°C 51.8°F11.0°C 64% 2.2 mph WNW3.5 kmh WNW 4.5 mph7.2 kmh 30.00 in1015.9 mb 0.00 in0.0 mm 0.00 in0.0 mm 0.00 in0.0 mm
04:59 PM 64.2°F17.9°C 51.8°F11.0°C 64% 1.6 mph NNE2.6 kmh NNE 3.4 mph5.5 kmh 30.00 in1015.9 mb 0.00 in0.0 mm 0.00 in0.0 mm 0.00 in0.0 mm
04:56 PM 64.4°F18.0°C 52.0°F11.1°C 64% 2.5 mph NW4.0 kmh NW 3.8 mph6.1 kmh 30.00 in1015.9 mb 0.00 in0.0 mm 0.00 in0.0 mm 0.00 in0.0 mm
04:54 PM 64.6°F18.1°C 52.2°F11.2°C 64% 2.7 mph 4.3 kmh 6.9 mph11.1 kmh 30.01 in1016.3 mb 0.00 in0.0 mm 0.00 in0.0 mm 0.00 in0.0 mm
04:52 PM 64.6°F18.1°C 52.5°F11.4°C 65% 2.0 mph W3.2 kmh W 3.1 mph5.0 kmh 30.00 in1015.9 mb 0.00 in0.0 mm 0.00 in0.0 mm 0.00 in0.0 mm
04:50 PM 64.6°F18.1°C 52.5°F11.4°C 65% 2.0 mph NNW3.2 kmh NNW 3.6 mph5.8 kmh 30.01 in1016.3 mb 0.00 in0.0 mm 0.00 in0.0 mm 0.00 in0.0 mm
04:48 PM 64.6°F18.1°C 52.5°F11.4°C 65% 2.0 mph NNE3.2 kmh NNE 2.9 mph4.7 kmh 30.01 in1016.3 mb 0.00 in0.0 mm 0.00 in0.0 mm 0.00 in0.0 mm
04:46 PM 64.6°F18.1°C 52.9°F11.6°C 66% 2.0 mph SW3.2 kmh SW 4.9 mph7.9 kmh 30.01 in1016.3 mb 0.00 in0.0 mm 0.00 in0.0 mm 0.00 in0.0 mm
04:43 PM 64.6°F18.1°C 52.9°F11.6°C 66% 1.8 mph WNW2.9 kmh WNW 2.2 mph3.5 kmh 30.01 in1016.3 mb 0.00 in0.0 mm 0.00 in0.0 mm 0.00 in0.0 mm
04:41 PM 64.6°F18.1°C 52.9°F11.6°C 66% 2.2 mph WNW3.5 kmh WNW 3.6 mph5.8 kmh 30.01 in1016.3 mb 0.00 in0.0 mm 0.00 in0.0 mm 0.00 in0.0 mm
04:39 PM 64.6°F18.1°C 52.9°F11.6°C 66% 2.5 mph E4.0 kmh E 3.4 mph5.5 kmh 30.01 in1016.3 mb 0.00 in0.0 mm 0.00 in0.0 mm 0.00 in0.0 mm
04:37 PM 64.8°F18.2°C 52.7°F11.5°C 65% 2.9 mph W4.7 kmh W 3.6 mph5.8 kmh 30.00 in1015.9 mb 0.00 in0.0 mm 0.00 in0.0 mm 0.00 in0.0 mm
04:35 PM 64.9°F18.3°C 52.9°F11.6°C 65% 4.5 mph WNW7.2 kmh WNW 7.8 mph12.6 kmh 30.00 in1015.9 mb 0.00 in0.0 mm 0.00 in0.0 mm 0.00 in0.0 mm
04:32 PM 65.1°F18.4°C 53.1°F11.7°C 65% 3.4 mph NNW5.5 kmh NNW 4.5 mph7.2 kmh 30.01 in1016.3 mb 0.00 in0.0 mm 0.00 in0.0 mm 0.00 in0.0 mm
04:30 PM 64.9°F18.3°C 52.9°F11.6°C 65% 4.0 mph WSW6.4 kmh WSW 6.9 mph11.1 kmh 30.00 in1015.9 mb 0.00 in0.0 mm 0.00 in0.0 mm 0.00 in0.0 mm
04:28 PM 64.9°F18.3°C 52.9°F11.6°C 65% 3.8 mph NW6.1 kmh NW 7.6 mph12.2 kmh 30.01 in1016.3 mb 0.00 in0.0 mm 0.00 in0.0 mm 0.00 in0.0 mm
04:26 PM 65.1°F18.4°C 53.1°F11.7°C 65% 4.3 mph WNW6.9 kmh WNW 6.7 mph10.8 kmh 30.01 in1016.3 mb 0.00 in0.0 mm 0.00 in0.0 mm 0.00 in0.0 mm
04:23 PM 64.9°F18.3°C 52.9°F11.6°C 65% 3.4 mph WNW5.5 kmh WNW 4.3 mph6.9 kmh 30.00 in1015.9 mb 0.00 in0.0 mm 0.00 in0.0 mm 0.00 in0.0 mm
04:21 PM 64.6°F18.1°C 52.5°F11.4°C 65% 3.8 mph WSW6.1 kmh WSW 7.2 mph11.6 kmh 30.00 in1015.9 mb 0.00 in0.0 mm 0.00 in0.0 mm 0.00 in0.0 mm
04:19 PM 64.4°F18.0°C 52.3°F11.3°C 65% 4.5 mph WSW7.2 kmh WSW 9.6 mph15.4 kmh 30.00 in1015.9 mb 0.00 in0.0 mm 0.00 in0.0 mm 0.00 in0.0 mm
04:17 PM 64.2°F17.9°C 51.8°F11.0°C 64% 3.4 mph 5.5 kmh 4.0 mph6.4 kmh 30.00 in1015.9 mb 0.00 in0.0 mm 0.00 in0.0 mm 0.00 in0.0 mm
04:15 PM 64.6°F18.1°C 52.2°F11.2°C 64% 3.8 mph 6.1 kmh 6.3 mph10.1 kmh 30.00 in1015.9 mb 0.00 in0.0 mm 0.00 in0.0 mm 0.00 in0.0 mm
04:13 PM 64.6°F18.1°C 52.2°F11.2°C 64% 3.1 mph WSW5.0 kmh WSW 5.6 mph9.0 kmh 30.00 in1015.9 mb 0.00 in0.0 mm 0.00 in0.0 mm 0.00 in0.0 mm
04:11 PM 64.6°F18.1°C 51.6°F10.9°C 63% 3.4 mph WSW5.5 kmh WSW 4.5 mph7.2 kmh 30.00 in1015.9 mb 0.00 in0.0 mm 0.00 in0.0 mm 0.00 in0.0 mm
04:09 PM 64.6°F18.1°C 51.3°F10.7°C 62% 3.6 mph NW5.8 kmh NW 3.8 mph6.1 kmh 30.00 in1015.9 mb 0.00 in0.0 mm 0.00 in0.0 mm 0.00 in0.0 mm
04:06 PM 64.9°F18.3°C 51.1°F10.6°C 61% 4.5 mph WNW7.2 kmh WNW 8.9 mph14.3 kmh 30.00 in1015.9 mb 0.00 in0.0 mm 0.00 in0.0 mm 0.00 in0.0 mm
04:04 PM 65.3°F18.5°C 51.1°F10.6°C 60% 3.1 mph W5.0 kmh W 6.0 mph9.7 kmh 30.00 in1015.9 mb 0.00 in0.0 mm 0.00 in0.0 mm 0.00 in0.0 mm
04:02 PM 65.5°F18.6°C 51.3°F10.7°C 60% 3.4 mph S5.5 kmh S 5.1 mph8.2 kmh 30.00 in1015.9 mb 0.00 in0.0 mm 0.00 in0.0 mm 0.00 in0.0 mm
04:00 PM 65.8°F18.8°C 51.6°F10.9°C 60% 4.5 mph WNW7.2 kmh WNW 10.3 mph16.6 kmh 30.00 in1015.9 mb 0.00 in0.0 mm 0.00 in0.0 mm 0.00 in0.0 mm
03:58 PM 66.0°F18.9°C 51.8°F11.0°C 60% 3.6 mph NW5.8 kmh NW 6.0 mph9.7 kmh 30.00 in1015.9 mb 0.00 in0.0 mm 0.00 in0.0 mm 0.00 in0.0 mm
03:55 PM 66.4°F19.1°C 52.2°F11.2°C 60% 3.1 mph NNW5.0 kmh NNW 5.4 mph8.7 kmh 30.00 in1015.9 mb 0.00 in0.0 mm 0.00 in0.0 mm 0.00 in0.0 mm
03:53 PM 66.0°F18.9°C 52.2°F11.2°C 61% 3.6 mph NNE5.8 kmh NNE 8.9 mph14.3 kmh 30.00 in1015.9 mb 0.00 in0.0 mm 0.00 in0.0 mm 0.00 in0.0 mm
03:51 PM 66.2°F19.0°C 52.0°F11.1°C 60% 4.0 mph W6.4 kmh W 7.2 mph11.6 kmh 30.00 in1015.9 mb 0.00 in0.0 mm 0.00 in0.0 mm 0.00 in0.0 mm
03:49 PM 66.2°F19.0°C 52.0°F11.1°C 60% 3.4 mph W5.5 kmh W 6.5 mph10.5 kmh 30.00 in1015.9 mb 0.00 in0.0 mm 0.00 in0.0 mm 0.00 in0.0 mm
03:47 PM 66.0°F18.9°C 51.8°F11.0°C 60% 3.1 mph W5.0 kmh W 5.8 mph9.3 kmh 30.00 in1015.9 mb 0.00 in0.0 mm 0.00 in0.0 mm 0.00 in0.0 mm
03:45 PM 66.0°F18.9°C 51.8°F11.0°C 60% 4.0 mph NW6.4 kmh NW 7.4 mph11.9 kmh 30.00 in1015.9 mb 0.00 in0.0 mm 0.00 in0.0 mm 0.00 in0.0 mm
03:43 PM 66.0°F18.9°C 51.8°F11.0°C 60% 3.6 mph NE5.8 kmh NE 6.9 mph11.1 kmh 29.99 in1015.6 mb 0.00 in0.0 mm 0.00 in0.0 mm 0.00 in0.0 mm
03:40 PM 66.0°F18.9°C 51.8°F11.0°C 60% 3.6 mph NW5.8 kmh NW 6.3 mph10.1 kmh 30.00 in1015.9 mb 0.00 in0.0 mm 0.00 in0.0 mm 0.00 in0.0 mm
03:38 PM 66.0°F18.9°C 51.3°F10.7°C 59% 4.0 mph WSW6.4 kmh WSW 8.9 mph14.3 kmh 29.99 in1015.6 mb 0.00 in0.0 mm 0.00 in0.0 mm 0.00 in0.0 mm
03:36 PM 66.4°F19.1°C 51.6°F10.9°C 59% 3.8 mph NW6.1 kmh NW 5.4 mph8.7 kmh 29.99 in1015.6 mb 0.00 in0.0 mm 0.00 in0.0 mm 0.00 in0.0 mm
03:33 PM 66.4°F19.1°C 51.1°F10.6°C 58% 4.3 mph NNE6.9 kmh NNE 5.8 mph9.3 kmh 29.99 in1015.6 mb 0.00 in0.0 mm 0.00 in0.0 mm 0.00 in0.0 mm
03:31 PM 66.6°F19.2°C 51.3°F10.7°C 58% 4.5 mph 7.2 kmh 6.9 mph11.1 kmh 29.99 in1015.6 mb 0.00 in0.0 mm 0.00 in0.0 mm 0.00 in0.0 mm
03:29 PM 66.6°F19.2°C 50.9°F10.5°C 57% 4.5 mph WSW7.2 kmh WSW 10.7 mph17.2 kmh 29.99 in1015.6 mb 0.00 in0.0 mm 0.00 in0.0 mm 0.00 in0.0 mm
03:26 PM 66.7°F19.3°C 51.1°F10.6°C 57% 3.8 mph 6.1 kmh 8.9 mph14.3 kmh 29.99 in1015.6 mb 0.00 in0.0 mm 0.00 in0.0 mm 0.00 in0.0 mm
03:24 PM 67.1°F19.5°C 50.9°F10.5°C 56% 3.8 mph WSW6.1 kmh WSW 6.3 mph10.1 kmh 30.00 in1015.9 mb 0.00 in0.0 mm 0.00 in0.0 mm 0.00 in0.0 mm
03:22 PM 67.3°F19.6°C 51.1°F10.6°C 56% 3.1 mph 5.0 kmh 4.5 mph7.2 kmh 29.99 in1015.6 mb 0.00 in0.0 mm 0.00 in0.0 mm 0.00 in0.0 mm
03:20 PM 67.3°F19.6°C 51.1°F10.6°C 56% 4.0 mph W6.4 kmh W 4.9 mph7.9 kmh 29.99 in1015.6 mb 0.00 in0.0 mm 0.00 in0.0 mm 0.00 in0.0 mm
03:18 PM 67.6°F19.8°C 50.9°F10.5°C 55% 3.8 mph W6.1 kmh W 6.7 mph10.8 kmh 29.99 in1015.6 mb 0.00 in0.0 mm 0.00 in0.0 mm 0.00 in0.0 mm
03:16 PM 67.6°F19.8°C 50.9°F10.5°C 55% 2.9 mph WSW4.7 kmh WSW 3.6 mph5.8 kmh 29.99 in1015.6 mb 0.00 in0.0 mm 0.00 in0.0 mm 0.00 in0.0 mm
03:13 PM 67.6°F19.8°C 50.9°F10.5°C 55% 3.4 mph NNW5.5 kmh NNW 4.3 mph6.9 kmh 29.99 in1015.6 mb 0.00 in0.0 mm 0.00 in0.0 mm 0.00 in0.0 mm
03:11 PM 67.5°F19.7°C 50.2°F10.1°C 54% 3.8 mph 6.1 kmh 8.9 mph14.3 kmh 29.99 in1015.6 mb 0.00 in0.0 mm 0.00 in0.0 mm 0.00 in0.0 mm
03:09 PM 67.6°F19.8°C 50.9°F10.5°C 55% 3.1 mph NW5.0 kmh NW 5.8 mph9.3 kmh 29.99 in1015.6 mb 0.00 in0.0 mm 0.00 in0.0 mm 0.00 in0.0 mm
03:05 PM 67.3°F19.6°C 51.1°F10.6°C 56% 2.7 mph NW4.3 kmh NW 3.4 mph5.5 kmh 29.99 in1015.6 mb 0.00 in0.0 mm 0.00 in0.0 mm 0.00 in0.0 mm
03:03 PM 66.9°F19.4°C 50.7°F10.4°C 56% 2.7 mph WNW4.3 kmh WNW 4.3 mph6.9 kmh 30.00 in1015.9 mb 0.00 in0.0 mm 0.00 in0.0 mm 0.00 in0.0 mm
03:01 PM 66.6°F19.2°C 50.4°F10.2°C 56% 3.1 mph NNW5.0 kmh NNW 6.3 mph10.1 kmh 30.00 in1015.9 mb 0.00 in0.0 mm 0.00 in0.0 mm 0.00 in0.0 mm
02:58 PM 66.4°F19.1°C 50.2°F10.1°C 56% 2.9 mph W4.7 kmh W 4.7 mph7.6 kmh 29.99 in1015.6 mb 0.00 in0.0 mm 0.00 in0.0 mm 0.00 in0.0 mm
02:56 PM 65.8°F18.8°C 50.2°F10.1°C 57% 2.7 mph NW4.3 kmh NW 4.7 mph7.6 kmh 29.99 in1015.6 mb 0.00 in0.0 mm 0.00 in0.0 mm 0.00 in0.0 mm
02:54 PM 65.3°F18.5°C 50.2°F10.1°C 58% 2.2 mph W3.5 kmh W 3.8 mph6.1 kmh 29.99 in1015.6 mb 0.00 in0.0 mm 0.00 in0.0 mm 0.00 in0.0 mm
02:52 PM 65.1°F18.4°C 50.4°F10.2°C 59% 1.8 mph WSW2.9 kmh WSW 2.7 mph4.3 kmh 29.99 in1015.6 mb 0.00 in0.0 mm 0.00 in0.0 mm 0.00 in0.0 mm
02:49 PM 64.8°F18.2°C 50.5°F10.3°C 60% 1.8 mph NW2.9 kmh NW 4.0 mph6.4 kmh 29.99 in1015.6 mb 0.00 in0.0 mm 0.00 in0.0 mm 0.00 in0.0 mm
02:47 PM 64.6°F18.1°C 50.9°F10.5°C 61% 2.0 mph W3.2 kmh W 3.6 mph5.8 kmh 29.99 in1015.6 mb 0.00 in0.0 mm 0.00 in0.0 mm 0.00 in0.0 mm
02:45 PM 64.2°F17.9°C 50.5°F10.3°C 61% 2.2 mph WNW3.5 kmh WNW 3.8 mph6.1 kmh 29.99 in1015.6 mb 0.00 in0.0 mm 0.00 in0.0 mm 0.00 in0.0 mm
02:43 PM 64.2°F17.9°C 51.8°F11.0°C 64% 1.6 mph NNE2.6 kmh NNE 4.7 mph7.6 kmh 29.99 in1015.6 mb 0.00 in0.0 mm 0.00 in0.0 mm 0.00 in0.0 mm
02:40 PM 64.0°F17.8°C 51.6°F10.9°C 64% 1.3 mph 2.1 kmh 4.5 mph7.2 kmh 29.98 in1015.2 mb 0.00 in0.0 mm 0.00 in0.0 mm 0.00 in0.0 mm
02:38 PM 63.9°F17.7°C 52.3°F11.3°C 66% 1.6 mph NNE2.6 kmh NNE 2.9 mph4.7 kmh 29.98 in1015.2 mb 0.00 in0.0 mm 0.00 in0.0 mm 0.00 in0.0 mm
02:36 PM 63.7°F17.6°C 52.2°F11.2°C 66% 1.8 mph 2.9 kmh 3.4 mph5.5 kmh 29.98 in1015.2 mb 0.00 in0.0 mm 0.00 in0.0 mm 0.00 in0.0 mm
02:34 PM 63.7°F17.6°C 52.5°F11.4°C 67% 1.3 mph SSE2.1 kmh SSE 5.4 mph8.7 kmh 29.99 in1015.6 mb 0.00 in0.0 mm 0.00 in0.0 mm 0.00 in0.0 mm
02:32 PM 63.5°F17.5°C 52.3°F11.3°C 67% 1.3 mph SSW2.1 kmh SSW 3.1 mph5.0 kmh 29.98 in1015.2 mb 0.00 in0.0 mm 0.00 in0.0 mm 0.00 in0.0 mm
02:29 PM 63.3°F17.4°C 52.2°F11.2°C 67% 1.6 mph WSW2.6 kmh WSW 2.0 mph3.2 kmh 29.98 in1015.2 mb 0.00 in0.0 mm 0.00 in0.0 mm 0.00 in0.0 mm
02:27 PM 63.3°F17.4°C 52.5°F11.4°C 68% 1.6 mph ENE2.6 kmh ENE 3.4 mph5.5 kmh 29.99 in1015.6 mb 0.00 in0.0 mm 0.00 in0.0 mm 0.00 in0.0 mm
02:25 PM 63.3°F17.4°C 52.5°F11.4°C 68% 1.3 mph WSW2.1 kmh WSW 1.8 mph2.9 kmh 29.98 in1015.2 mb 0.00 in0.0 mm 0.00 in0.0 mm 0.00 in0.0 mm
02:23 PM 63.3°F17.4°C 52.5°F11.4°C 68% 1.3 mph WNW2.1 kmh WNW 3.8 mph6.1 kmh 29.98 in1015.2 mb 0.00 in0.0 mm 0.00 in0.0 mm 0.00 in0.0 mm
02:21 PM 63.3°F17.4°C 53.1°F11.7°C 69% 1.6 mph SW2.6 kmh SW 4.5 mph7.2 kmh 29.99 in1015.6 mb 0.00 in0.0 mm 0.00 in0.0 mm 0.00 in0.0 mm
02:19 PM 63.1°F17.3°C 52.9°F11.6°C 69% 1.6 mph NNW2.6 kmh NNW 2.7 mph4.3 kmh 29.99 in1015.6 mb 0.00 in0.0 mm 0.00 in0.0 mm 0.00 in0.0 mm
02:16 PM 63.1°F17.3°C 53.2°F11.8°C 70% 1.8 mph NNW2.9 kmh NNW 4.0 mph6.4 kmh 29.99 in1015.6 mb 0.00 in0.0 mm 0.00 in0.0 mm 0.00 in0.0 mm
02:14 PM 63.1°F17.3°C 53.6°F12.0°C 71% 1.3 mph NNW2.1 kmh NNW 2.0 mph3.2 kmh 30.00 in1015.9 mb 0.00 in0.0 mm 0.00 in0.0 mm 0.00 in0.0 mm
02:12 PM 62.8°F17.1°C 53.2°F11.8°C 71% 2.2 mph SW3.5 kmh SW 3.8 mph6.1 kmh 30.00 in1015.9 mb 0.00 in0.0 mm 0.00 in0.0 mm 0.00 in0.0 mm
02:10 PM 62.4°F16.9°C 53.2°F11.8°C 72% 2.0 mph NW3.2 kmh NW 2.2 mph3.5 kmh 30.00 in1015.9 mb 0.00 in0.0 mm 0.00 in0.0 mm 0.00 in0.0 mm
02:08 PM 62.2°F16.8°C 52.7°F11.5°C 71% 2.2 mph NNW3.5 kmh NNW 3.1 mph5.0 kmh 30.00 in1015.9 mb 0.00 in0.0 mm 0.00 in0.0 mm 0.00 in0.0 mm
02:06 PM 62.1°F16.7°C 52.5°F11.4°C 71% 2.9 mph NNW4.7 kmh NNW 4.0 mph6.4 kmh 30.01 in1016.3 mb 0.00 in0.0 mm 0.00 in0.0 mm 0.00 in0.0 mm
02:03 PM 62.1°F16.7°C 52.5°F11.4°C 71% 2.9 mph NW4.7 kmh NW 4.9 mph7.9 kmh 30.02 in1016.6 mb 0.00 in0.0 mm 0.00 in0.0 mm 0.00 in0.0 mm
02:01 PM 61.9°F16.6°C 52.0°F11.1°C 70% 2.9 mph WNW4.7 kmh WNW 6.3 mph10.1 kmh 30.02 in1016.6 mb 0.00 in0.0 mm 0.00 in0.0 mm 0.00 in0.0 mm
01:59 PM 61.9°F16.6°C 52.0°F11.1°C 70% 2.7 mph NW4.3 kmh NW 6.3 mph10.1 kmh 30.02 in1016.6 mb 0.00 in0.0 mm 0.00 in0.0 mm 0.00 in0.0 mm
01:57 PM 61.9°F16.6°C 52.0°F11.1°C 70% 1.8 mph NNE2.9 kmh NNE 3.4 mph5.5 kmh 30.03 in1016.9 mb 0.00 in0.0 mm 0.00 in0.0 mm 0.00 in0.0 mm
01:55 PM 61.5°F16.4°C 51.3°F10.7°C 69% 2.5 mph SW4.0 kmh SW 4.5 mph7.2 kmh 30.03 in1016.9 mb 0.00 in0.0 mm 0.00 in0.0 mm 0.00 in0.0 mm
01:52 PM 61.5°F16.4°C 51.6°F10.9°C 70% 1.8 mph 2.9 kmh 2.5 mph4.0 kmh 30.03 in1016.9 mb 0.00 in0.0 mm 0.00 in0.0 mm 0.00 in0.0 mm
01:50 PM 61.3°F16.3°C 51.4°F10.8°C 70% 2.2 mph WSW3.5 kmh WSW 3.8 mph6.1 kmh 30.03 in1016.9 mb 0.00 in0.0 mm 0.00 in0.0 mm 0.00 in0.0 mm
01:48 PM 61.3°F16.3°C 51.4°F10.8°C 70% 2.7 mph NNE4.3 kmh NNE 3.4 mph5.5 kmh 30.04 in1017.3 mb 0.00 in0.0 mm 0.00 in0.0 mm 0.00 in0.0 mm
01:46 PM 61.3°F16.3°C 51.4°F10.8°C 70% 3.1 mph W5.0 kmh W 4.5 mph7.2 kmh 30.04 in1017.3 mb 0.00 in0.0 mm 0.00 in0.0 mm 0.00 in0.0 mm
01:43 PM 61.3°F16.3°C 51.4°F10.8°C 70% 2.9 mph SSW4.7 kmh SSW 6.0 mph9.7 kmh 30.04 in1017.3 mb 0.00 in0.0 mm 0.00 in0.0 mm 0.00 in0.0 mm
01:41 PM 61.3°F16.3°C 51.4°F10.8°C 70% 2.9 mph NNW4.7 kmh NNW 4.7 mph7.6 kmh 30.04 in1017.3 mb 0.00 in0.0 mm 0.00 in0.0 mm 0.00 in0.0 mm
01:39 PM 61.5°F16.4°C 51.6°F10.9°C 70% 3.1 mph WNW5.0 kmh WNW 4.5 mph7.2 kmh 30.04 in1017.3 mb 0.00 in0.0 mm 0.00 in0.0 mm 0.00 in0.0 mm
01:36 PM 61.5°F16.4°C 51.6°F10.9°C 70% 3.1 mph W5.0 kmh W 7.6 mph12.2 kmh 30.04 in1017.3 mb 0.00 in0.0 mm 0.00 in0.0 mm 0.00 in0.0 mm
01:34 PM 61.5°F16.4°C 51.6°F10.9°C 70% 3.1 mph WNW5.0 kmh WNW 3.1 mph5.0 kmh 30.04 in1017.3 mb 0.00 in0.0 mm 0.00 in0.0 mm 0.00 in0.0 mm
01:32 PM 61.5°F16.4°C 51.3°F10.7°C 69% 4.0 mph NNE6.4 kmh NNE 5.8 mph9.3 kmh 30.04 in1017.3 mb 0.00 in0.0 mm 0.00 in0.0 mm 0.00 in0.0 mm
01:30 PM 61.5°F16.4°C 51.3°F10.7°C 69% 4.5 mph WSW7.2 kmh WSW 7.4 mph11.9 kmh 30.03 in1016.9 mb 0.00 in0.0 mm 0.00 in0.0 mm 0.00 in0.0 mm
01:28 PM 61.7°F16.5°C 51.1°F10.6°C 68% 4.7 mph NNW7.6 kmh NNW 6.7 mph10.8 kmh 30.04 in1017.3 mb 0.00 in0.0 mm 0.00 in0.0 mm 0.00 in0.0 mm
01:26 PM 62.1°F16.7°C 51.4°F10.8°C 68% 4.0 mph NNE6.4 kmh NNE 8.9 mph14.3 kmh 30.04 in1017.3 mb 0.00 in0.0 mm 0.00 in0.0 mm 0.00 in0.0 mm
01:23 PM 62.2°F16.8°C 52.0°F11.1°C 69% 2.9 mph NW4.7 kmh NW 4.7 mph7.6 kmh 30.04 in1017.3 mb 0.00 in0.0 mm 0.00 in0.0 mm 0.00 in0.0 mm
01:21 PM 62.1°F16.7°C 51.8°F11.0°C 69% 2.9 mph NW4.7 kmh NW 6.5 mph10.5 kmh 30.04 in1017.3 mb 0.00 in0.0 mm 0.00 in0.0 mm 0.00 in0.0 mm
01:19 PM 62.2°F16.8°C 52.0°F11.1°C 69% 3.4 mph WSW5.5 kmh WSW 9.6 mph15.4 kmh 30.03 in1016.9 mb 0.00 in0.0 mm 0.00 in0.0 mm 0.00 in0.0 mm
01:16 PM 61.9°F16.6°C 51.6°F10.9°C 69% 3.6 mph NNE5.8 kmh NNE 7.4 mph11.9 kmh 30.04 in1017.3 mb 0.00 in0.0 mm 0.00 in0.0 mm 0.00 in0.0 mm
01:14 PM 61.9°F16.6°C 52.0°F11.1°C 70% 3.4 mph WNW5.5 kmh WNW 4.9 mph7.9 kmh 30.03 in1016.9 mb 0.00 in0.0 mm 0.00 in0.0 mm 0.00 in0.0 mm
01:12 PM 61.7°F16.5°C 51.8°F11.0°C 70% 3.6 mph NW5.8 kmh NW 7.2 mph11.6 kmh 30.03 in1016.9 mb 0.00 in0.0 mm 0.00 in0.0 mm 0.00 in0.0 mm
01:10 PM 61.7°F16.5°C 51.4°F10.8°C 69% 4.0 mph WNW6.4 kmh WNW 6.5 mph10.5 kmh 30.03 in1016.9 mb 0.00 in0.0 mm 0.00 in0.0 mm 0.00 in0.0 mm
01:08 PM 61.7°F16.5°C 51.4°F10.8°C 69% 4.5 mph NW7.2 kmh NW 5.6 mph9.0 kmh 30.03 in1016.9 mb 0.00 in0.0 mm 0.00 in0.0 mm 0.00 in0.0 mm
01:06 PM 61.9°F16.6°C 51.6°F10.9°C 69% 4.9 mph WNW7.9 kmh WNW 11.0 mph17.7 kmh 30.03 in1016.9 mb 0.00 in0.0 mm 0.00 in0.0 mm 0.00 in0.0 mm
01:04 PM 62.1°F16.7°C 51.8°F11.0°C 69% 4.5 mph W7.2 kmh W 11.6 mph18.7 kmh 30.03 in1016.9 mb 0.00 in0.0 mm 0.00 in0.0 mm 0.00 in0.0 mm
01:01 PM 62.1°F16.7°C 52.2°F11.2°C 70% 2.9 mph E4.7 kmh E 4.0 mph6.4 kmh 30.03 in1016.9 mb 0.00 in0.0 mm 0.00 in0.0 mm 0.00 in0.0 mm
12:59 PM 61.9°F16.6°C 52.0°F11.1°C 70% 3.1 mph 5.0 kmh 4.5 mph7.2 kmh 30.03 in1016.9 mb 0.00 in0.0 mm 0.00 in0.0 mm 0.00 in0.0 mm
12:57 PM 61.9°F16.6°C 52.0°F11.1°C 70% 3.6 mph NW5.8 kmh NW 5.8 mph9.3 kmh 30.03 in1016.9 mb 0.00 in0.0 mm 0.00 in0.0 mm 0.00 in0.0 mm
12:55 PM 61.9°F16.6°C 52.0°F11.1°C 70% 3.8 mph WNW6.1 kmh WNW 5.8 mph9.3 kmh 30.04 in1017.3 mb 0.00 in0.0 mm 0.00 in0.0 mm 0.00 in0.0 mm
12:53 PM 61.7°F16.5°C 51.4°F10.8°C 69% 4.0 mph WSW6.4 kmh WSW 7.8 mph12.6 kmh 30.03 in1016.9 mb 0.00 in0.0 mm 0.00 in0.0 mm 0.00 in0.0 mm
12:51 PM 62.1°F16.7°C 52.2°F11.2°C 70% 4.0 mph W6.4 kmh W 6.5 mph10.5 kmh 30.03 in1016.9 mb 0.00 in0.0 mm 0.00 in0.0 mm 0.00 in0.0 mm
12:48 PM 62.4°F16.9°C 52.5°F11.4°C 70% 3.8 mph W6.1 kmh W 5.1 mph8.2 kmh 30.04 in1017.3 mb 0.00 in0.0 mm 0.00 in0.0 mm 0.00 in0.0 mm
12:46 PM 62.4°F16.9°C 52.5°F11.4°C 70% 3.4 mph NNW5.5 kmh NNW 6.5 mph10.5 kmh 30.03 in1016.9 mb 0.00 in0.0 mm 0.00 in0.0 mm 0.00 in0.0 mm
12:44 PM 62.2°F16.8°C 52.7°F11.5°C 71% 3.4 mph NNW5.5 kmh NNW 4.0 mph6.4 kmh 30.03 in1016.9 mb 0.00 in0.0 mm 0.00 in0.0 mm 0.00 in0.0 mm
12:42 PM 61.9°F16.6°C 52.3°F11.3°C 71% 4.0 mph NNW6.4 kmh NNW 5.6 mph9.0 kmh 30.04 in1017.3 mb 0.00 in0.0 mm 0.00 in0.0 mm 0.00 in0.0 mm
12:40 PM 61.5°F16.4°C 52.0°F11.1°C 71% 4.3 mph WNW6.9 kmh WNW 5.4 mph8.7 kmh 30.04 in1017.3 mb 0.00 in0.0 mm 0.00 in0.0 mm 0.00 in0.0 mm
12:38 PM 61.3°F16.3°C 51.8°F11.0°C 71% 4.7 mph NNW7.6 kmh NNW 6.3 mph10.1 kmh 30.03 in1016.9 mb 0.00 in0.0 mm 0.00 in0.0 mm 0.00 in0.0 mm
12:36 PM 61.3°F16.3°C 51.8°F11.0°C 71% 4.7 mph S7.6 kmh S 8.3 mph13.4 kmh 30.03 in1016.9 mb 0.00 in0.0 mm 0.00 in0.0 mm 0.00 in0.0 mm
12:33 PM 61.7°F16.5°C 52.5°F11.4°C 72% 4.0 mph WNW6.4 kmh WNW 7.6 mph12.2 kmh 30.03 in1016.9 mb 0.00 in0.0 mm 0.00 in0.0 mm 0.00 in0.0 mm
12:31 PM 61.7°F16.5°C 52.5°F11.4°C 72% 2.5 mph W4.0 kmh W 3.6 mph5.8 kmh 30.04 in1017.3 mb 0.00 in0.0 mm 0.00 in0.0 mm 0.00 in0.0 mm
12:29 PM 61.7°F16.5°C 52.5°F11.4°C 72% 2.9 mph WNW4.7 kmh WNW 5.4 mph8.7 kmh 30.04 in1017.3 mb 0.00 in0.0 mm 0.00 in0.0 mm 0.00 in0.0 mm
12:27 PM 61.9°F16.6°C 52.7°F11.5°C 72% 2.5 mph WNW4.0 kmh WNW 3.6 mph5.8 kmh 30.04 in1017.3 mb 0.00 in0.0 mm 0.00 in0.0 mm 0.00 in0.0 mm
12:25 PM 61.7°F16.5°C 52.5°F11.4°C 72% 2.2 mph NNW3.5 kmh NNW 4.7 mph7.6 kmh 30.04 in1017.3 mb 0.00 in0.0 mm 0.00 in0.0 mm 0.00 in0.0 mm
12:22 PM 61.9°F16.6°C 52.3°F11.3°C 71% 2.7 mph NW4.3 kmh NW 7.6 mph12.2 kmh 30.04 in1017.3 mb 0.00 in0.0 mm 0.00 in0.0 mm 0.00 in0.0 mm
12:20 PM 62.1°F16.7°C 52.9°F11.6°C 72% 2.0 mph W3.2 kmh W 2.5 mph4.0 kmh 30.03 in1016.9 mb 0.00 in0.0 mm 0.00 in0.0 mm 0.00 in0.0 mm
12:18 PM 62.2°F16.8°C 52.7°F11.5°C 71% 2.2 mph SW3.5 kmh SW 4.3 mph6.9 kmh 30.03 in1016.9 mb 0.00 in0.0 mm 0.00 in0.0 mm 0.00 in0.0 mm
12:16 PM 62.2°F16.8°C 52.7°F11.5°C 71% 2.0 mph WSW3.2 kmh WSW 2.7 mph4.3 kmh 30.03 in1016.9 mb 0.00 in0.0 mm 0.00 in0.0 mm 0.00 in0.0 mm
12:14 PM 62.2°F16.8°C 52.7°F11.5°C 71% 2.9 mph NNW4.7 kmh NNW 4.5 mph7.2 kmh 30.03 in1016.9 mb 0.00 in0.0 mm 0.00 in0.0 mm 0.00 in0.0 mm
12:11 PM 62.2°F16.8°C 52.7°F11.5°C 71% 3.6 mph W5.8 kmh W 5.8 mph9.3 kmh 30.03 in1016.9 mb 0.00 in0.0 mm 0.00 in0.0 mm 0.00 in0.0 mm
12:09 PM 62.2°F16.8°C 52.7°F11.5°C 71% 3.1 mph NNW5.0 kmh NNW 6.0 mph9.7 kmh 30.03 in1016.9 mb 0.00 in0.0 mm 0.00 in0.0 mm 0.00 in0.0 mm
12:07 PM 62.2°F16.8°C 52.7°F11.5°C 71% 2.7 mph WNW4.3 kmh WNW 3.8 mph6.1 kmh 30.03 in1016.9 mb 0.00 in0.0 mm 0.00 in0.0 mm 0.00 in0.0 mm
12:05 PM 62.1°F16.7°C 52.5°F11.4°C 71% 2.9 mph NNW4.7 kmh NNW 4.5 mph7.2 kmh 30.03 in1016.9 mb 0.00 in0.0 mm 0.00 in0.0 mm 0.00 in0.0 mm
12:03 PM 62.2°F16.8°C 52.7°F11.5°C 71% 4.0 mph WSW6.4 kmh WSW 6.3 mph10.1 kmh 30.03 in1016.9 mb 0.00 in0.0 mm 0.00 in0.0 mm 0.00 in0.0 mm
12:00 PM 61.9°F16.6°C 52.3°F11.3°C 71% 3.4 mph NW5.5 kmh NW 5.4 mph8.7 kmh 30.03 in1016.9 mb 0.00 in0.0 mm 0.00 in0.0 mm 0.00 in0.0 mm
11:58 AM 61.9°F16.6°C 52.3°F11.3°C 71% 3.8 mph WSW6.1 kmh WSW 5.8 mph9.3 kmh 30.03 in1016.9 mb 0.00 in0.0 mm 0.00 in0.0 mm 0.00 in0.0 mm
11:56 AM 62.1°F16.7°C 52.5°F11.4°C 71% 4.3 mph W6.9 kmh W 7.4 mph11.9 kmh 30.03 in1016.9 mb 0.00 in0.0 mm 0.00 in0.0 mm 0.00 in0.0 mm
11:54 AM 62.2°F16.8°C 53.1°F11.7°C 72% 3.8 mph W6.1 kmh W 8.7 mph14.0 kmh 30.03 in1016.9 mb 0.00 in0.0 mm 0.00 in0.0 mm 0.00 in0.0 mm
11:52 AM 62.2°F16.8°C 53.4°F11.9°C 73% 3.4 mph WNW5.5 kmh WNW 5.1 mph8.2 kmh 30.03 in1016.9 mb 0.00 in0.0 mm 0.00 in0.0 mm 0.00 in0.0 mm
11:50 AM 61.9°F16.6°C 53.4°F11.9°C 74% 3.6 mph W5.8 kmh W 5.4 mph8.7 kmh 30.03 in1016.9 mb 0.00 in0.0 mm 0.00 in0.0 mm 0.00 in0.0 mm
11:48 AM 61.7°F16.5°C 53.2°F11.8°C 74% 3.6 mph SW5.8 kmh SW 5.1 mph8.2 kmh 30.03 in1016.9 mb 0.00 in0.0 mm 0.00 in0.0 mm 0.00 in0.0 mm
11:45 AM 61.5°F16.4°C 53.2°F11.8°C 74% 3.8 mph WNW6.1 kmh WNW 5.8 mph9.3 kmh 30.02 in1016.6 mb 0.00 in0.0 mm 0.00 in0.0 mm 0.00 in0.0 mm
11:43 AM 61.5°F16.4°C 54.0°F12.2°C 76% 3.8 mph W6.1 kmh W 5.1 mph8.2 kmh 30.03 in1016.9 mb 0.00 in0.0 mm 0.00 in0.0 mm 0.00 in0.0 mm
11:41 AM 61.2°F16.2°C 53.6°F12.0°C 76% 3.8 mph W6.1 kmh W 6.5 mph10.5 kmh 30.03 in1016.9 mb 0.00 in0.0 mm 0.00 in0.0 mm 0.00 in0.0 mm
11:38 AM 60.8°F16.0°C 53.2°F11.8°C 76% 3.4 mph W5.5 kmh W 4.7 mph7.6 kmh 30.02 in1016.6 mb 0.00 in0.0 mm 0.00 in0.0 mm 0.00 in0.0 mm
11:36 AM 60.4°F15.8°C 52.9°F11.6°C 76% 4.0 mph 6.4 kmh 4.3 mph6.9 kmh 30.02 in1016.6 mb 0.00 in0.0 mm 0.00 in0.0 mm 0.00 in0.0 mm
11:34 AM 60.1°F15.6°C 52.5°F11.4°C 76% 5.1 mph WNW8.2 kmh WNW 6.7 mph10.8 kmh 30.02 in1016.6 mb 0.00 in0.0 mm 0.00 in0.0 mm 0.00 in0.0 mm
11:32 AM 60.1°F15.6°C 52.5°F11.4°C 76% 5.1 mph 8.2 kmh 7.4 mph11.9 kmh 30.02 in1016.6 mb 0.00 in0.0 mm 0.00 in0.0 mm 0.00 in0.0 mm
11:30 AM 60.1°F15.6°C 52.5°F11.4°C 76% 4.9 mph NNW7.9 kmh NNW 8.5 mph13.7 kmh 30.02 in1016.6 mb 0.00 in0.0 mm 0.00 in0.0 mm 0.00 in0.0 mm
11:28 AM 60.1°F15.6°C 52.2°F11.2°C 75% 5.4 mph NW8.7 kmh NW 8.9 mph14.3 kmh 30.02 in1016.6 mb 0.00 in0.0 mm 0.00 in0.0 mm 0.00 in0.0 mm
11:25 AM 60.4°F15.8°C 52.5°F11.4°C 75% 5.6 mph WNW9.0 kmh WNW 6.0 mph9.7 kmh 30.02 in1016.6 mb 0.00 in0.0 mm 0.00 in0.0 mm 0.00 in0.0 mm
11:23 AM 60.6°F15.9°C 52.7°F11.5°C 75% 6.0 mph W9.7 kmh W 11.9 mph19.2 kmh 30.02 in1016.6 mb 0.00 in0.0 mm 0.00 in0.0 mm 0.00 in0.0 mm
11:21 AM 61.0°F16.1°C 53.1°F11.7°C 75% 4.9 mph W7.9 kmh W 7.6 mph12.2 kmh 30.02 in1016.6 mb 0.00 in0.0 mm 0.00 in0.0 mm 0.00 in0.0 mm
11:19 AM 61.3°F16.3°C 53.4°F11.9°C 75% 4.7 mph WSW7.6 kmh WSW 8.3 mph13.4 kmh 30.01 in1016.3 mb 0.00 in0.0 mm 0.00 in0.0 mm 0.00 in0.0 mm
11:16 AM 61.7°F16.5°C 53.2°F11.8°C 74% 4.7 mph NW7.6 kmh NW 6.9 mph11.1 kmh 30.01 in1016.3 mb 0.00 in0.0 mm 0.00 in0.0 mm 0.00 in0.0 mm
11:14 AM 62.2°F16.8°C 53.8°F12.1°C 74% 4.9 mph WNW7.9 kmh WNW 12.1 mph19.5 kmh 30.01 in1016.3 mb 0.00 in0.0 mm 0.00 in0.0 mm 0.00 in0.0 mm
11:12 AM 62.4°F16.9°C 54.0°F12.2°C 74% 4.5 mph NNW7.2 kmh NNW 6.5 mph10.5 kmh 30.01 in1016.3 mb 0.00 in0.0 mm 0.00 in0.0 mm 0.00 in0.0 mm
11:10 AM 62.4°F16.9°C 53.6°F12.0°C 73% 4.3 mph 6.9 kmh 5.6 mph9.0 kmh 30.01 in1016.3 mb 0.00 in0.0 mm 0.00 in0.0 mm 0.00 in0.0 mm
11:07 AM 62.4°F16.9°C 53.6°F12.0°C 73% 4.7 mph NW7.6 kmh NW 6.0 mph9.7 kmh 30.01 in1016.3 mb 0.00 in0.0 mm 0.00 in0.0 mm 0.00 in0.0 mm
11:05 AM 62.2°F16.8°C 53.4°F11.9°C 73% 5.1 mph W8.2 kmh W 6.5 mph10.5 kmh 30.00 in1015.9 mb 0.00 in0.0 mm 0.00 in0.0 mm 0.00 in0.0 mm
11:03 AM 61.9°F16.6°C 53.4°F11.9°C 74% 5.1 mph WNW8.2 kmh WNW 7.4 mph11.9 kmh 30.00 in1015.9 mb 0.00 in0.0 mm 0.00 in0.0 mm 0.00 in0.0 mm
11:01 AM 61.5°F16.4°C 52.7°F11.5°C 73% 5.1 mph WNW8.2 kmh WNW 8.1 mph13.0 kmh 30.00 in1015.9 mb 0.00 in0.0 mm 0.00 in0.0 mm 0.00 in0.0 mm
10:59 AM 61.5°F16.4°C 52.7°F11.5°C 73% 5.1 mph W8.2 kmh W 8.5 mph13.7 kmh 30.00 in1015.9 mb 0.00 in0.0 mm 0.00 in0.0 mm 0.00 in0.0 mm
10:57 AM 61.3°F16.3°C 53.1°F11.7°C 74% 3.6 mph NW5.8 kmh NW 5.6 mph9.0 kmh 30.00 in1015.9 mb 0.00 in0.0 mm 0.00 in0.0 mm 0.00 in0.0 mm
10:54 AM 61.2°F16.2°C 52.5°F11.4°C 73% 4.5 mph W7.2 kmh W 8.1 mph13.0 kmh 30.00 in1015.9 mb 0.00 in0.0 mm 0.00 in0.0 mm 0.00 in0.0 mm
10:52 AM 61.2°F16.2°C 52.9°F11.6°C 74% 4.5 mph NW7.2 kmh NW 6.9 mph11.1 kmh 30.00 in1015.9 mb 0.00 in0.0 mm 0.00 in0.0 mm 0.00 in0.0 mm
10:50 AM 61.0°F16.1°C 53.1°F11.7°C 75% 3.8 mph SSW6.1 kmh SSW 6.3 mph10.1 kmh 30.00 in1015.9 mb 0.00 in0.0 mm 0.00 in0.0 mm 0.00 in0.0 mm
10:48 AM 60.6°F15.9°C 52.7°F11.5°C 75% 4.3 mph W6.9 kmh W 7.4 mph11.9 kmh 29.99 in1015.6 mb 0.00 in0.0 mm 0.00 in0.0 mm 0.00 in0.0 mm
10:46 AM 60.6°F15.9°C 53.1°F11.7°C 76% 3.8 mph W6.1 kmh W 4.5 mph7.2 kmh 29.99 in1015.6 mb 0.00 in0.0 mm 0.00 in0.0 mm 0.00 in0.0 mm
10:44 AM 60.6°F15.9°C 53.1°F11.7°C 76% 4.0 mph WNW6.4 kmh WNW 7.6 mph12.2 kmh 29.99 in1015.6 mb 0.00 in0.0 mm 0.00 in0.0 mm 0.00 in0.0 mm
10:42 AM 60.6°F15.9°C 53.1°F11.7°C 76% 4.7 mph NW7.6 kmh NW 6.7 mph10.8 kmh 29.99 in1015.6 mb 0.00 in0.0 mm 0.00 in0.0 mm 0.00 in0.0 mm
10:39 AM 60.6°F15.9°C 53.1°F11.7°C 76% 4.9 mph NW7.9 kmh NW 8.3 mph13.4 kmh 29.99 in1015.6 mb 0.00 in0.0 mm 0.00 in0.0 mm 0.00 in0.0 mm
10:37 AM 61.3°F16.3°C 53.8°F12.1°C 76% 5.1 mph NW8.2 kmh NW 11.9 mph19.2 kmh 29.98 in1015.2 mb 0.00 in0.0 mm 0.00 in0.0 mm 0.00 in0.0 mm
10:35 AM 61.9°F16.6°C 54.3°F12.4°C 76% 5.1 mph WSW8.2 kmh WSW 11.9 mph19.2 kmh 29.98 in1015.2 mb 0.00 in0.0 mm 0.00 in0.0 mm 0.00 in0.0 mm
10:33 AM 62.2°F16.8°C 54.9°F12.7°C 77% 3.6 mph NNW5.8 kmh NNW 6.7 mph10.8 kmh 29.98 in1015.2 mb 0.00 in0.0 mm 0.00 in0.0 mm 0.00 in0.0 mm
10:30 AM 62.4°F16.9°C 54.7°F12.6°C 76% 2.2 mph NW3.5 kmh NW 3.6 mph5.8 kmh 29.97 in1014.9 mb 0.00 in0.0 mm 0.00 in0.0 mm 0.00 in0.0 mm
10:28 AM 62.4°F16.9°C 54.7°F12.6°C 76% 1.8 mph NW2.9 kmh NW 4.0 mph6.4 kmh 29.97 in1014.9 mb 0.00 in0.0 mm 0.00 in0.0 mm 0.00 in0.0 mm
10:26 AM 62.2°F16.8°C 54.1°F12.3°C 75% 0.2 mph WSW0.3 kmh WSW -- 29.96 in1014.6 mb 0.00 in0.0 mm 0.00 in0.0 mm 0.00 in0.0 mm
10:24 AM 62.2°F16.8°C 54.1°F12.3°C 75% 0.2 mph SE0.3 kmh SE -- 29.96 in1014.6 mb 0.00 in0.0 mm 0.00 in0.0 mm 0.00 in0.0 mm
10:22 AM 62.1°F16.7°C 54.0°F12.2°C 75% 0.4 mph E0.6 kmh E -- 29.96 in1014.6 mb 0.00 in0.0 mm 0.00 in0.0 mm 0.00 in0.0 mm
10:20 AM 62.1°F16.7°C 54.0°F12.2°C 75% 0.7 mph SSE1.1 kmh SSE -- 29.96 in1014.6 mb 0.00 in0.0 mm 0.00 in0.0 mm 0.00 in0.0 mm
10:17 AM 62.1°F16.7°C 53.6°F12.0°C 74% 1.1 mph NW1.8 kmh NW 1.3 mph2.1 kmh 29.96 in1014.6 mb 0.00 in0.0 mm 0.00 in0.0 mm 0.00 in0.0 mm
10:15 AM 61.9°F16.6°C 53.4°F11.9°C 74% 1.3 mph ESE2.1 kmh ESE 2.9 mph4.7 kmh 29.95 in1014.2 mb 0.00 in0.0 mm 0.00 in0.0 mm 0.00 in0.0 mm
10:13 AM 61.9°F16.6°C 53.4°F11.9°C 74% 0.9 mph ESE1.4 kmh ESE 2.0 mph3.2 kmh 29.96 in1014.6 mb 0.00 in0.0 mm 0.00 in0.0 mm 0.00 in0.0 mm
10:11 AM 62.1°F16.7°C 53.6°F12.0°C 74% 0.2 mph E0.3 kmh E -- 29.95 in1014.2 mb 0.00 in0.0 mm 0.00 in0.0 mm 0.00 in0.0 mm
10:08 AM 61.9°F16.6°C 53.4°F11.9°C 74% 0.2 mph E0.3 kmh E -- 29.95 in1014.2 mb 0.00 in0.0 mm 0.00 in0.0 mm 0.00 in0.0 mm
10:06 AM 61.9°F16.6°C 53.4°F11.9°C 74% 0.2 mph E0.3 kmh E -- 29.95 in1014.2 mb 0.00 in0.0 mm 0.00 in0.0 mm 0.00 in0.0 mm
10:04 AM 61.9°F16.6°C 53.4°F11.9°C 74% 0.2 mph NE0.3 kmh NE -- 29.95 in1014.2 mb 0.00 in0.0 mm 0.00 in0.0 mm 0.00 in0.0 mm
10:02 AM 61.7°F16.5°C 53.2°F11.8°C 74% 0.2 mph ENE0.3 kmh ENE -- 29.95 in1014.2 mb 0.00 in0.0 mm 0.00 in0.0 mm 0.00 in0.0 mm
09:59 AM 61.7°F16.5°C 53.2°F11.8°C 74% 0.2 mph NE0.3 kmh NE -- 29.95 in1014.2 mb 0.00 in0.0 mm 0.00 in0.0 mm 0.00 in0.0 mm
09:57 AM 61.5°F16.4°C 52.7°F11.5°C 73% 0.4 mph WNW0.6 kmh WNW -- 29.95 in1014.2 mb 0.00 in0.0 mm 0.00 in0.0 mm 0.00 in0.0 mm
09:55 AM 61.7°F16.5°C 52.9°F11.6°C 73% 0.7 mph 1.1 kmh 1.6 mph2.6 kmh 29.95 in1014.2 mb 0.00 in0.0 mm 0.00 in0.0 mm 0.00 in0.0 mm
09:53 AM 61.7°F16.5°C 52.5°F11.4°C 72% 0.7 mph 1.1 kmh 1.6 mph2.6 kmh 29.95 in1014.2 mb 0.00 in0.0 mm 0.00 in0.0 mm 0.00 in0.0 mm
09:50 AM 61.9°F16.6°C 52.7°F11.5°C 72% 0.7 mph WNW1.1 kmh WNW 2.2 mph3.5 kmh 29.95 in1014.2 mb 0.00 in0.0 mm 0.00 in0.0 mm 0.00 in0.0 mm
09:48 AM 61.9°F16.6°C 52.3°F11.3°C 71% 0.7 mph W1.1 kmh W 2.0 mph3.2 kmh 29.95 in1014.2 mb 0.00 in0.0 mm 0.00 in0.0 mm 0.00 in0.0 mm
09:46 AM 62.1°F16.7°C 52.5°F11.4°C 71% 0.7 mph NNW1.1 kmh NNW 2.0 mph3.2 kmh 29.95 in1014.2 mb 0.00 in0.0 mm 0.00 in0.0 mm 0.00 in0.0 mm
09:44 AM 62.1°F16.7°C 52.5°F11.4°C 71% 0.9 mph NW1.4 kmh NW 2.0 mph3.2 kmh 29.94 in1013.9 mb 0.00 in0.0 mm 0.00 in0.0 mm 0.00 in0.0 mm
09:42 AM 62.1°F16.7°C 52.2°F11.2°C 70% 0.9 mph NW1.4 kmh NW 2.5 mph4.0 kmh 29.94 in1013.9 mb 0.00 in0.0 mm 0.00 in0.0 mm 0.00 in0.0 mm
09:39 AM 62.2°F16.8°C 52.3°F11.3°C 70% 1.1 mph NNW1.8 kmh NNW 3.1 mph5.0 kmh 29.94 in1013.9 mb 0.00 in0.0 mm 0.00 in0.0 mm 0.00 in0.0 mm
09:37 AM 62.4°F16.9°C 52.2°F11.2°C 69% 1.8 mph NNW2.9 kmh NNW 3.8 mph6.1 kmh 29.94 in1013.9 mb 0.00 in0.0 mm 0.00 in0.0 mm 0.00 in0.0 mm
09:35 AM 62.6°F17.0°C 52.3°F11.3°C 69% 1.1 mph NW1.8 kmh NW 3.1 mph5.0 kmh 29.93 in1013.5 mb 0.00 in0.0 mm 0.00 in0.0 mm 0.00 in0.0 mm
09:33 AM 63.0°F17.2°C 52.7°F11.5°C 69% 0.7 mph NNW1.1 kmh NNW 1.6 mph2.6 kmh 29.94 in1013.9 mb 0.00 in0.0 mm 0.00 in0.0 mm 0.00 in0.0 mm
09:31 AM 63.0°F17.2°C 52.7°F11.5°C 69% 0.2 mph 0.3 kmh 0.9 mph1.4 kmh 29.94 in1013.9 mb 0.00 in0.0 mm 0.00 in0.0 mm 0.00 in0.0 mm
09:29 AM 63.0°F17.2°C 52.2°F11.2°C 68% 0.2 mph WSW0.3 kmh WSW -- 29.93 in1013.5 mb 0.00 in0.0 mm 0.00 in0.0 mm 0.00 in0.0 mm
09:26 AM 63.0°F17.2°C 52.2°F11.2°C 68% 0.4 mph SW0.6 kmh SW 1.3 mph2.1 kmh 29.93 in1013.5 mb 0.00 in0.0 mm 0.00 in0.0 mm 0.00 in0.0 mm
09:24 AM 63.0°F17.2°C 52.2°F11.2°C 68% 0.7 mph S1.1 kmh S 0.7 mph1.1 kmh 29.93 in1013.5 mb 0.00 in0.0 mm 0.00 in0.0 mm 0.00 in0.0 mm
09:22 AM 63.0°F17.2°C 51.8°F11.0°C 67% 1.1 mph SW1.8 kmh SW 2.0 mph3.2 kmh 29.93 in1013.5 mb 0.00 in0.0 mm 0.00 in0.0 mm 0.00 in0.0 mm
09:20 AM 63.1°F17.3°C 52.0°F11.1°C 67% 0.9 mph 1.4 kmh 1.3 mph2.1 kmh 29.93 in1013.5 mb 0.00 in0.0 mm 0.00 in0.0 mm 0.00 in0.0 mm
09:18 AM 63.3°F17.4°C 51.8°F11.0°C 66% 1.1 mph NNW1.8 kmh NNW 2.5 mph4.0 kmh 29.93 in1013.5 mb 0.00 in0.0 mm 0.00 in0.0 mm 0.00 in0.0 mm
09:16 AM 63.5°F17.5°C 52.0°F11.1°C 66% 0.7 mph 1.1 kmh 1.1 mph1.8 kmh 29.92 in1013.2 mb 0.00 in0.0 mm 0.00 in0.0 mm 0.00 in0.0 mm
09:14 AM 63.5°F17.5°C 52.0°F11.1°C 66% 0.7 mph NNW1.1 kmh NNW 0.9 mph1.4 kmh 29.92 in1013.2 mb 0.00 in0.0 mm 0.00 in0.0 mm 0.00 in0.0 mm
09:12 AM 63.7°F17.6°C 52.5°F11.4°C 67% 0.9 mph WSW1.4 kmh WSW 1.8 mph2.9 kmh 29.92 in1013.2 mb 0.00 in0.0 mm 0.00 in0.0 mm 0.00 in0.0 mm
09:09 AM 63.7°F17.6°C 52.5°F11.4°C 67% 0.7 mph 1.1 kmh -- 29.92 in1013.2 mb 0.00 in0.0 mm 0.00 in0.0 mm 0.00 in0.0 mm
09:07 AM 63.5°F17.5°C 52.3°F11.3°C 67% 1.6 mph NNE2.6 kmh NNE 3.1 mph5.0 kmh 29.92 in1013.2 mb 0.00 in0.0 mm 0.00 in0.0 mm 0.00 in0.0 mm
09:05 AM 63.3°F17.4°C 52.5°F11.4°C 68% 1.6 mph WSW2.6 kmh WSW 7.6 mph12.2 kmh 29.91 in1012.9 mb 0.00 in0.0 mm 0.00 in0.0 mm 0.00 in0.0 mm
09:03 AM 63.1°F17.3°C 52.3°F11.3°C 68% 0.4 mph SSE0.6 kmh SSE 1.6 mph2.6 kmh 29.92 in1013.2 mb 0.00 in0.0 mm 0.00 in0.0 mm 0.00 in0.0 mm
09:01 AM 63.1°F17.3°C 52.0°F11.1°C 67% 0.7 mph NNW1.1 kmh NNW 1.6 mph2.6 kmh 29.91 in1012.9 mb 0.00 in0.0 mm 0.00 in0.0 mm 0.00 in0.0 mm
08:58 AM 63.3°F17.4°C 52.2°F11.2°C 67% 0.9 mph NW1.4 kmh NW 2.0 mph3.2 kmh 29.92 in1013.2 mb 0.00 in0.0 mm 0.00 in0.0 mm 0.00 in0.0 mm
08:56 AM 63.7°F17.6°C 52.9°F11.6°C 68% 1.1 mph W1.8 kmh W 2.2 mph3.5 kmh 29.92 in1013.2 mb 0.00 in0.0 mm 0.00 in0.0 mm 0.00 in0.0 mm
08:54 AM 63.7°F17.6°C 52.5°F11.4°C 67% 1.1 mph 1.8 kmh 1.8 mph2.9 kmh 29.91 in1012.9 mb 0.00 in0.0 mm 0.00 in0.0 mm 0.00 in0.0 mm
08:52 AM 63.7°F17.6°C 52.5°F11.4°C 67% 0.9 mph SE1.4 kmh SE 1.8 mph2.9 kmh 29.91 in1012.9 mb 0.00 in0.0 mm 0.00 in0.0 mm 0.00 in0.0 mm
08:49 AM 63.5°F17.5°C 52.0°F11.1°C 66% 0.9 mph 1.4 kmh 1.6 mph2.6 kmh 29.91 in1012.9 mb 0.00 in0.0 mm 0.00 in0.0 mm 0.00 in0.0 mm
08:47 AM 64.0°F17.8°C 52.0°F11.1°C 65% 0.9 mph NNE1.4 kmh NNE 2.5 mph4.0 kmh 29.91 in1012.9 mb 0.00 in0.0 mm 0.00 in0.0 mm 0.00 in0.0 mm
08:45 AM 64.2°F17.9°C 52.2°F11.2°C 65% 0.9 mph 1.4 kmh 2.0 mph3.2 kmh 29.91 in1012.9 mb 0.00 in0.0 mm 0.00 in0.0 mm 0.00 in0.0 mm
08:43 AM 64.2°F17.9°C 52.2°F11.2°C 65% 0.7 mph W1.1 kmh W 2.2 mph3.5 kmh 29.91 in1012.9 mb 0.00 in0.0 mm 0.00 in0.0 mm 0.00 in0.0 mm
08:40 AM 64.2°F17.9°C 52.2°F11.2°C 65% 0.4 mph W0.6 kmh W 0.9 mph1.4 kmh 29.91 in1012.9 mb 0.00 in0.0 mm 0.00 in0.0 mm 0.00 in0.0 mm
08:38 AM 64.0°F17.8°C 52.0°F11.1°C 65% 0.7 mph W1.1 kmh W 1.6 mph2.6 kmh 29.91 in1012.9 mb 0.00 in0.0 mm 0.00 in0.0 mm 0.00 in0.0 mm
08:36 AM 63.7°F17.6°C 51.6°F10.9°C 65% 0.9 mph NNE1.4 kmh NNE 2.0 mph3.2 kmh 29.91 in1012.9 mb 0.00 in0.0 mm 0.00 in0.0 mm 0.00 in0.0 mm
08:34 AM 63.7°F17.6°C 51.3°F10.7°C 64% 0.9 mph 1.4 kmh 2.0 mph3.2 kmh 29.91 in1012.9 mb 0.00 in0.0 mm 0.00 in0.0 mm 0.00 in0.0 mm
08:32 AM 63.7°F17.6°C 51.3°F10.7°C 64% 1.1 mph WNW1.8 kmh WNW 2.7 mph4.3 kmh 29.90 in1012.5 mb 0.00 in0.0 mm 0.00 in0.0 mm 0.00 in0.0 mm
08:29 AM 64.8°F18.2°C 53.1°F11.7°C 66% 0.9 mph WNW1.4 kmh WNW 2.7 mph4.3 kmh 29.90 in1012.5 mb 0.00 in0.0 mm 0.00 in0.0 mm 0.00 in0.0 mm
08:27 AM 64.8°F18.2°C 53.1°F11.7°C 66% 0.2 mph NW0.3 kmh NW -- 29.90 in1012.5 mb 0.00 in0.0 mm 0.00 in0.0 mm 0.00 in0.0 mm
08:25 AM 64.8°F18.2°C 53.1°F11.7°C 66% 0.2 mph 0.3 kmh -- 29.90 in1012.5 mb 0.00 in0.0 mm 0.00 in0.0 mm 0.00 in0.0 mm
08:22 AM 64.2°F17.9°C 53.1°F11.7°C 67% 0.2 mph NE0.3 kmh NE -- 29.90 in1012.5 mb 0.00 in0.0 mm 0.00 in0.0 mm 0.00 in0.0 mm
08:20 AM 64.0°F17.8°C 52.9°F11.6°C 67% 0.4 mph W0.6 kmh W -- 29.90 in1012.5 mb 0.00 in0.0 mm 0.00 in0.0 mm 0.00 in0.0 mm
08:18 AM 63.5°F17.5°C 52.3°F11.3°C 67% 0.7 mph WSW1.1 kmh WSW -- 29.90 in1012.5 mb 0.00 in0.0 mm 0.00 in0.0 mm 0.00 in0.0 mm
08:16 AM 63.0°F17.2°C 51.8°F11.0°C 67% 1.3 mph WNW2.1 kmh WNW -- 29.90 in1012.5 mb 0.00 in0.0 mm 0.00 in0.0 mm 0.00 in0.0 mm
08:13 AM 62.4°F16.9°C 51.3°F10.7°C 67% 2.7 mph NE4.3 kmh NE 2.9 mph4.7 kmh 29.90 in1012.5 mb 0.00 in0.0 mm 0.00 in0.0 mm 0.00 in0.0 mm
08:11 AM 62.2°F16.8°C 51.1°F10.6°C 67% 4.3 mph ENE6.9 kmh ENE 6.5 mph10.5 kmh 29.90 in1012.5 mb 0.00 in0.0 mm 0.00 in0.0 mm 0.00 in0.0 mm
08:09 AM 62.1°F16.7°C 50.9°F10.5°C 67% 3.8 mph ESE6.1 kmh ESE 4.9 mph7.9 kmh 29.90 in1012.5 mb 0.00 in0.0 mm 0.00 in0.0 mm 0.00 in0.0 mm
08:07 AM 61.9°F16.6°C 50.7°F10.4°C 67% 3.6 mph E5.8 kmh E 5.1 mph8.2 kmh 29.90 in1012.5 mb 0.00 in0.0 mm 0.00 in0.0 mm 0.00 in0.0 mm
08:05 AM 61.7°F16.5°C 50.7°F10.4°C 67% 3.1 mph ESE5.0 kmh ESE 4.9 mph7.9 kmh 29.90 in1012.5 mb 0.00 in0.0 mm 0.00 in0.0 mm 0.00 in0.0 mm
08:03 AM 61.7°F16.5°C 50.7°F10.4°C 67% 3.4 mph ESE5.5 kmh ESE 6.3 mph10.1 kmh 29.90 in1012.5 mb 0.00 in0.0 mm 0.00 in0.0 mm 0.00 in0.0 mm
08:01 AM 61.5°F16.4°C 50.5°F10.3°C 67% 2.9 mph SE4.7 kmh SE 4.5 mph7.2 kmh 29.90 in1012.5 mb 0.00 in0.0 mm 0.00 in0.0 mm 0.00 in0.0 mm
07:59 AM 61.3°F16.3°C 50.4°F10.2°C 67% 2.2 mph SE3.5 kmh SE 3.8 mph6.1 kmh 29.90 in1012.5 mb 0.00 in0.0 mm 0.00 in0.0 mm 0.00 in0.0 mm
07:56 AM 61.0°F16.1°C 50.0°F10.0°C 67% 3.6 mph ESE5.8 kmh ESE 5.4 mph8.7 kmh 29.90 in1012.5 mb 0.00 in0.0 mm 0.00 in0.0 mm 0.00 in0.0 mm
07:54 AM 60.8°F16.0°C 49.8°F9.9°C 67% 3.6 mph ESE5.8 kmh ESE 4.7 mph7.6 kmh 29.90 in1012.5 mb 0.00 in0.0 mm 0.00 in0.0 mm 0.00 in0.0 mm
07:52 AM 60.6°F15.9°C 50.0°F10.0°C 68% 3.4 mph ESE5.5 kmh ESE 4.7 mph7.6 kmh 29.90 in1012.5 mb 0.00 in0.0 mm 0.00 in0.0 mm 0.00 in0.0 mm
07:50 AM 60.4°F15.8°C 49.8°F9.9°C 68% 3.6 mph E5.8 kmh E 5.4 mph8.7 kmh 29.90 in1012.5 mb 0.00 in0.0 mm 0.00 in0.0 mm 0.00 in0.0 mm
07:48 AM 60.1°F15.6°C 49.5°F9.7°C 68% 3.4 mph E5.5 kmh E 5.6 mph9.0 kmh 29.90 in1012.5 mb 0.00 in0.0 mm 0.00 in0.0 mm 0.00 in0.0 mm
07:45 AM 59.7°F15.4°C 49.1°F9.5°C 68% 4.0 mph SE6.4 kmh SE 7.2 mph11.6 kmh 29.90 in1012.5 mb 0.00 in0.0 mm 0.00 in0.0 mm 0.00 in0.0 mm
07:43 AM 59.7°F15.4°C 49.1°F9.5°C 68% 3.4 mph ESE5.5 kmh ESE 5.1 mph8.2 kmh 29.89 in1012.2 mb 0.00 in0.0 mm 0.00 in0.0 mm 0.00 in0.0 mm
07:41 AM 59.7°F15.4°C 49.5°F9.7°C 69% 2.7 mph ESE4.3 kmh ESE 4.5 mph7.2 kmh 29.89 in1012.2 mb 0.00 in0.0 mm 0.00 in0.0 mm 0.00 in0.0 mm
07:39 AM 59.5°F15.3°C 49.3°F9.6°C 69% 1.8 mph NE2.9 kmh NE 3.1 mph5.0 kmh 29.89 in1012.2 mb 0.00 in0.0 mm 0.00 in0.0 mm 0.00 in0.0 mm
07:36 AM 59.0°F15.0°C 48.9°F9.4°C 69% 2.7 mph ENE4.3 kmh ENE 3.1 mph5.0 kmh 29.89 in1012.2 mb 0.00 in0.0 mm 0.00 in0.0 mm 0.00 in0.0 mm
07:34 AM 58.8°F14.9°C 48.7°F9.3°C 69% 3.6 mph WSW5.8 kmh WSW 4.9 mph7.9 kmh 29.89 in1012.2 mb 0.00 in0.0 mm 0.00 in0.0 mm 0.00 in0.0 mm
07:32 AM 58.5°F14.7°C 48.4°F9.1°C 69% 4.9 mph ESE7.9 kmh ESE 6.7 mph10.8 kmh 29.89 in1012.2 mb 0.00 in0.0 mm 0.00 in0.0 mm 0.00 in0.0 mm
07:30 AM 58.3°F14.6°C 48.2°F9.0°C 69% 5.1 mph ESE8.2 kmh ESE 7.6 mph12.2 kmh 29.89 in1012.2 mb 0.00 in0.0 mm 0.00 in0.0 mm 0.00 in0.0 mm
07:27 AM 57.9°F14.4°C 47.8°F8.8°C 69% 5.1 mph SSE8.2 kmh SSE 6.7 mph10.8 kmh 29.89 in1012.2 mb 0.00 in0.0 mm 0.00 in0.0 mm 0.00 in0.0 mm
07:25 AM 57.7°F14.3°C 47.7°F8.7°C 69% 5.4 mph ENE8.7 kmh ENE 9.6 mph15.4 kmh 29.89 in1012.2 mb 0.00 in0.0 mm 0.00 in0.0 mm 0.00 in0.0 mm
07:23 AM 57.6°F14.2°C 47.8°F8.8°C 70% 6.0 mph E9.7 kmh E 7.4 mph11.9 kmh 29.89 in1012.2 mb 0.00 in0.0 mm 0.00 in0.0 mm 0.00 in0.0 mm
07:21 AM 57.4°F14.1°C 47.7°F8.7°C 70% 5.4 mph ESE8.7 kmh ESE 6.5 mph10.5 kmh 29.89 in1012.2 mb 0.00 in0.0 mm 0.00 in0.0 mm 0.00 in0.0 mm
07:19 AM 57.2°F14.0°C 47.5°F8.6°C 70% 5.4 mph ESE8.7 kmh ESE 7.4 mph11.9 kmh 29.89 in1012.2 mb 0.00 in0.0 mm 0.00 in0.0 mm 0.00 in0.0 mm
07:17 AM 57.0°F13.9°C 47.3°F8.5°C 70% 4.9 mph SE7.9 kmh SE 9.6 mph15.4 kmh 29.89 in1012.2 mb 0.00 in0.0 mm 0.00 in0.0 mm 0.00 in0.0 mm
07:14 AM 57.0°F13.9°C 47.3°F8.5°C 70% 4.7 mph ESE7.6 kmh ESE 6.9 mph11.1 kmh 29.89 in1012.2 mb 0.00 in0.0 mm 0.00 in0.0 mm 0.00 in0.0 mm
07:12 AM 56.8°F13.8°C 47.1°F8.4°C 70% 5.4 mph E8.7 kmh E 6.7 mph10.8 kmh 29.89 in1012.2 mb 0.00 in0.0 mm 0.00 in0.0 mm 0.00 in0.0 mm
07:10 AM 56.8°F13.8°C 47.1°F8.4°C 70% 5.4 mph E8.7 kmh E 6.7 mph10.8 kmh 29.89 in1012.2 mb 0.00 in0.0 mm 0.00 in0.0 mm 0.00 in0.0 mm
07:08 AM 56.5°F13.6°C 47.1°F8.4°C 71% 5.6 mph ESE9.0 kmh ESE 8.3 mph13.4 kmh 29.89 in1012.2 mb 0.00 in0.0 mm 0.00 in0.0 mm 0.00 in0.0 mm
07:05 AM 56.5°F13.6°C 47.1°F8.4°C 71% 6.0 mph ESE9.7 kmh ESE 7.8 mph12.6 kmh 29.89 in1012.2 mb 0.00 in0.0 mm 0.00 in0.0 mm 0.00 in0.0 mm
07:03 AM 56.3°F13.5°C 46.9°F8.3°C 71% 6.9 mph ESE11.1 kmh ESE 8.3 mph13.4 kmh 29.89 in1012.2 mb 0.00 in0.0 mm 0.00 in0.0 mm 0.00 in0.0 mm
07:01 AM 56.1°F13.4°C 46.8°F8.2°C 71% 6.5 mph SE10.5 kmh SE 6.7 mph10.8 kmh 29.89 in1012.2 mb 0.00 in0.0 mm 0.00 in0.0 mm 0.00 in0.0 mm
06:59 AM 55.9°F13.3°C 46.8°F8.2°C 71% 6.9 mph ESE11.1 kmh ESE 9.6 mph15.4 kmh 29.89 in1012.2 mb 0.00 in0.0 mm 0.00 in0.0 mm 0.00 in0.0 mm
06:57 AM 55.9°F13.3°C 46.8°F8.2°C 71% 7.6 mph ESE12.2 kmh ESE 9.8 mph15.8 kmh 29.89 in1012.2 mb 0.00 in0.0 mm 0.00 in0.0 mm 0.00 in0.0 mm
06:55 AM 55.9°F13.3°C 47.1°F8.4°C 72% 7.2 mph ESE11.6 kmh ESE 10.5 mph16.9 kmh 29.89 in1012.2 mb 0.00 in0.0 mm 0.00 in0.0 mm 0.00 in0.0 mm
06:52 AM 55.8°F13.2°C 46.9°F8.3°C 72% 6.5 mph E10.5 kmh E 9.8 mph15.8 kmh 29.89 in1012.2 mb 0.00 in0.0 mm 0.00 in0.0 mm 0.00 in0.0 mm
06:50 AM 55.8°F13.2°C 46.9°F8.3°C 72% 6.0 mph ESE9.7 kmh ESE 9.6 mph15.4 kmh 29.89 in1012.2 mb 0.00 in0.0 mm 0.00 in0.0 mm 0.00 in0.0 mm
06:48 AM 55.6°F13.1°C 46.8°F8.2°C 72% 5.4 mph SE8.7 kmh SE 7.6 mph12.2 kmh 29.89 in1012.2 mb 0.00 in0.0 mm 0.00 in0.0 mm 0.00 in0.0 mm
06:46 AM 55.4°F13.0°C 46.6°F8.1°C 72% 5.6 mph ESE9.0 kmh ESE 6.7 mph10.8 kmh 29.89 in1012.2 mb 0.00 in0.0 mm 0.00 in0.0 mm 0.00 in0.0 mm
06:43 AM 55.2°F12.9°C 46.4°F8.0°C 72% 5.4 mph ESE8.7 kmh ESE 7.4 mph11.9 kmh 29.89 in1012.2 mb 0.00 in0.0 mm 0.00 in0.0 mm 0.00 in0.0 mm
06:41 AM 55.0°F12.8°C 46.2°F7.9°C 72% 5.4 mph ESE8.7 kmh ESE 7.6 mph12.2 kmh 29.89 in1012.2 mb 0.00 in0.0 mm 0.00 in0.0 mm 0.00 in0.0 mm
06:39 AM 55.0°F12.8°C 46.2°F7.9°C 72% 5.6 mph ESE9.0 kmh ESE 7.4 mph11.9 kmh 29.89 in1012.2 mb 0.00 in0.0 mm 0.00 in0.0 mm 0.00 in0.0 mm
06:37 AM 55.0°F12.8°C 45.9°F7.7°C 71% 5.1 mph E8.2 kmh E 6.9 mph11.1 kmh 29.89 in1012.2 mb 0.00 in0.0 mm 0.00 in0.0 mm 0.00 in0.0 mm
06:35 AM 55.0°F12.8°C 45.9°F7.7°C 71% 4.7 mph ESE7.6 kmh ESE 5.1 mph8.2 kmh 29.89 in1012.2 mb 0.00 in0.0 mm 0.00 in0.0 mm 0.00 in0.0 mm
06:32 AM 54.9°F12.7°C 45.7°F7.6°C 71% 5.4 mph ENE8.7 kmh ENE 5.6 mph9.0 kmh 29.88 in1011.9 mb 0.00 in0.0 mm 0.00 in0.0 mm 0.00 in0.0 mm
06:30 AM 54.9°F12.7°C 45.7°F7.6°C 71% 5.6 mph E9.0 kmh E 8.1 mph13.0 kmh 29.88 in1011.9 mb 0.00 in0.0 mm 0.00 in0.0 mm 0.00 in0.0 mm
06:28 AM 54.5°F12.5°C 45.7°F7.6°C 72% 5.4 mph ESE8.7 kmh ESE 5.8 mph9.3 kmh 29.88 in1011.9 mb 0.00 in0.0 mm 0.00 in0.0 mm 0.00 in0.0 mm
06:26 AM 54.3°F12.4°C 45.5°F7.5°C 72% 5.4 mph ESE8.7 kmh ESE 7.2 mph11.6 kmh 29.88 in1011.9 mb 0.00 in0.0 mm 0.00 in0.0 mm 0.00 in0.0 mm
06:24 AM 54.3°F12.4°C 45.5°F7.5°C 72% 4.7 mph E7.6 kmh E 5.4 mph8.7 kmh 29.89 in1012.2 mb 0.00 in0.0 mm 0.00 in0.0 mm 0.00 in0.0 mm
06:21 AM 54.3°F12.4°C 45.5°F7.5°C 72% 5.1 mph SE8.2 kmh SE 6.3 mph10.1 kmh 29.88 in1011.9 mb 0.00 in0.0 mm 0.00 in0.0 mm 0.00 in0.0 mm
06:19 AM 54.3°F12.4°C 45.5°F7.5°C 72% 5.8 mph ESE9.3 kmh ESE 6.9 mph11.1 kmh 29.89 in1012.2 mb 0.00 in0.0 mm 0.00 in0.0 mm 0.00 in0.0 mm
06:17 AM 54.1°F12.3°C 45.3°F7.4°C 72% 5.4 mph SE8.7 kmh SE 7.6 mph12.2 kmh 29.89 in1012.2 mb 0.00 in0.0 mm 0.00 in0.0 mm 0.00 in0.0 mm
06:15 AM 54.0°F12.2°C 45.1°F7.3°C 72% 5.8 mph ESE9.3 kmh ESE 8.1 mph13.0 kmh 29.88 in1011.9 mb 0.00 in0.0 mm 0.00 in0.0 mm 0.00 in0.0 mm
06:12 AM 53.8°F12.1°C 45.0°F7.2°C 72% 5.6 mph ESE9.0 kmh ESE 6.9 mph11.1 kmh 29.88 in1011.9 mb 0.00 in0.0 mm 0.00 in0.0 mm 0.00 in0.0 mm
06:10 AM 53.8°F12.1°C 45.0°F7.2°C 72% 4.5 mph SE7.2 kmh SE 6.0 mph9.7 kmh 29.89 in1012.2 mb 0.00 in0.0 mm 0.00 in0.0 mm 0.00 in0.0 mm
06:08 AM 53.8°F12.1°C 45.3°F7.4°C 73% 3.6 mph ESE5.8 kmh ESE 5.1 mph8.2 kmh 29.88 in1011.9 mb 0.00 in0.0 mm 0.00 in0.0 mm 0.00 in0.0 mm
06:06 AM 53.8°F12.1°C 45.3°F7.4°C 73% 3.8 mph SE6.1 kmh SE 5.1 mph8.2 kmh 29.88 in1011.9 mb 0.00 in0.0 mm 0.00 in0.0 mm 0.00 in0.0 mm
06:04 AM 53.8°F12.1°C 45.7°F7.6°C 74% 3.6 mph E5.8 kmh E 6.0 mph9.7 kmh 29.88 in1011.9 mb 0.00 in0.0 mm 0.00 in0.0 mm 0.00 in0.0 mm
06:01 AM 53.8°F12.1°C 45.7°F7.6°C 74% 3.4 mph SE5.5 kmh SE 4.5 mph7.2 kmh 29.88 in1011.9 mb 0.00 in0.0 mm 0.00 in0.0 mm 0.00 in0.0 mm
05:59 AM 53.8°F12.1°C 45.7°F7.6°C 74% 3.1 mph E5.0 kmh E 4.7 mph7.6 kmh 29.88 in1011.9 mb 0.00 in0.0 mm 0.00 in0.0 mm 0.00 in0.0 mm
05:57 AM 53.4°F11.9°C 45.7°F7.6°C 75% 2.9 mph ESE4.7 kmh ESE 4.5 mph7.2 kmh 29.88 in1011.9 mb 0.00 in0.0 mm 0.00 in0.0 mm 0.00 in0.0 mm
05:54 AM 53.2°F11.8°C 45.5°F7.5°C 75% 3.4 mph ENE5.5 kmh ENE 4.7 mph7.6 kmh 29.88 in1011.9 mb 0.00 in0.0 mm 0.00 in0.0 mm 0.00 in0.0 mm
05:52 AM 52.7°F11.5°C 45.0°F7.2°C 75% 4.3 mph SE6.9 kmh SE 3.6 mph5.8 kmh 29.88 in1011.9 mb 0.00 in0.0 mm 0.00 in0.0 mm 0.00 in0.0 mm
05:50 AM 52.5°F11.4°C 44.8°F7.1°C 75% 5.1 mph SE8.2 kmh SE 6.3 mph10.1 kmh 29.88 in1011.9 mb 0.00 in0.0 mm 0.00 in0.0 mm 0.00 in0.0 mm
05:48 AM 52.5°F11.4°C 44.8°F7.1°C 75% 5.8 mph SE9.3 kmh SE 7.8 mph12.6 kmh 29.88 in1011.9 mb 0.00 in0.0 mm 0.00 in0.0 mm 0.00 in0.0 mm
05:46 AM 52.7°F11.5°C 45.0°F7.2°C 75% 5.8 mph SE9.3 kmh SE 8.5 mph13.7 kmh 29.88 in1011.9 mb 0.00 in0.0 mm 0.00 in0.0 mm 0.00 in0.0 mm
05:43 AM 52.7°F11.5°C 45.0°F7.2°C 75% 5.4 mph ESE8.7 kmh ESE 5.6 mph9.0 kmh 29.88 in1011.9 mb 0.00 in0.0 mm 0.00 in0.0 mm 0.00 in0.0 mm
05:41 AM 52.9°F11.6°C 45.1°F7.3°C 75% 5.6 mph ESE9.0 kmh ESE 7.6 mph12.2 kmh 29.88 in1011.9 mb 0.00 in0.0 mm 0.00 in0.0 mm 0.00 in0.0 mm
05:39 AM 52.9°F11.6°C 45.1°F7.3°C 75% 5.1 mph ESE8.2 kmh ESE 5.4 mph8.7 kmh 29.88 in1011.9 mb 0.00 in0.0 mm 0.00 in0.0 mm 0.00 in0.0 mm
05:37 AM 52.9°F11.6°C 45.5°F7.5°C 76% 5.4 mph SE8.7 kmh SE 7.6 mph12.2 kmh 29.88 in1011.9 mb 0.00 in0.0 mm 0.00 in0.0 mm 0.00 in0.0 mm
05:35 AM 52.7°F11.5°C 45.3°F7.4°C 76% 5.1 mph ESE8.2 kmh ESE 6.9 mph11.1 kmh 29.88 in1011.9 mb 0.00 in0.0 mm 0.00 in0.0 mm 0.00 in0.0 mm
05:33 AM 52.5°F11.4°C 45.1°F7.3°C 76% 4.7 mph ESE7.6 kmh ESE 6.5 mph10.5 kmh 29.88 in1011.9 mb 0.00 in0.0 mm 0.00 in0.0 mm 0.00 in0.0 mm
05:31 AM 52.3°F11.3°C 45.3°F7.4°C 77% 4.5 mph ESE7.2 kmh ESE 5.8 mph9.3 kmh 29.88 in1011.9 mb 0.00 in0.0 mm 0.00 in0.0 mm 0.00 in0.0 mm
05:28 AM 52.3°F11.3°C 45.3°F7.4°C 77% 4.5 mph SE7.2 kmh SE 6.0 mph9.7 kmh 29.88 in1011.9 mb 0.00 in0.0 mm 0.00 in0.0 mm 0.00 in0.0 mm
05:26 AM 52.2°F11.2°C 45.1°F7.3°C 77% 4.9 mph ESE7.9 kmh ESE 8.3 mph13.4 kmh 29.88 in1011.9 mb 0.00 in0.0 mm 0.00 in0.0 mm 0.00 in0.0 mm
05:24 AM 52.2°F11.2°C 45.1°F7.3°C 77% 4.7 mph ESE7.6 kmh ESE 6.7 mph10.8 kmh 29.88 in1011.9 mb 0.00 in0.0 mm 0.00 in0.0 mm 0.00 in0.0 mm
05:22 AM 52.0°F11.1°C 45.0°F7.2°C 77% 4.7 mph SSE7.6 kmh SSE 5.4 mph8.7 kmh 29.87 in1011.5 mb 0.00 in0.0 mm 0.00 in0.0 mm 0.00 in0.0 mm
05:20 AM 52.0°F11.1°C 45.0°F7.2°C 77% 5.1 mph E8.2 kmh E 6.3 mph10.1 kmh 29.87 in1011.5 mb 0.00 in0.0 mm 0.00 in0.0 mm 0.00 in0.0 mm
05:18 AM 52.0°F11.1°C 44.6°F7.0°C 76% 5.4 mph ESE8.7 kmh ESE 7.6 mph12.2 kmh 29.87 in1011.5 mb 0.00 in0.0 mm 0.00 in0.0 mm 0.00 in0.0 mm
05:16 AM 52.2°F11.2°C 44.8°F7.1°C 76% 5.6 mph ESE9.0 kmh ESE 8.3 mph13.4 kmh 29.88 in1011.9 mb 0.00 in0.0 mm 0.00 in0.0 mm 0.00 in0.0 mm
05:14 AM 52.3°F11.3°C 45.0°F7.2°C 76% 6.0 mph ESE9.7 kmh ESE 8.3 mph13.4 kmh 29.87 in1011.5 mb 0.00 in0.0 mm 0.00 in0.0 mm 0.00 in0.0 mm
05:11 AM 52.3°F11.3°C 45.0°F7.2°C 76% 6.0 mph SE9.7 kmh SE 6.9 mph11.1 kmh 29.87 in1011.5 mb 0.00 in0.0 mm 0.00 in0.0 mm 0.00 in0.0 mm
05:09 AM 52.2°F11.2°C 44.8°F7.1°C 76% 6.3 mph ESE10.1 kmh ESE 8.7 mph14.0 kmh 29.87 in1011.5 mb 0.00 in0.0 mm 0.00 in0.0 mm 0.00 in0.0 mm
05:07 AM 52.2°F11.2°C 44.4°F6.9°C 75% 5.4 mph ESE8.7 kmh ESE 8.1 mph13.0 kmh 29.87 in1011.5 mb 0.00 in0.0 mm 0.00 in0.0 mm 0.00 in0.0 mm
05:05 AM 52.2°F11.2°C 44.4°F6.9°C 75% 5.4 mph SE8.7 kmh SE 7.4 mph11.9 kmh 29.87 in1011.5 mb 0.00 in0.0 mm 0.00 in0.0 mm 0.00 in0.0 mm
05:03 AM 52.3°F11.3°C 44.6°F7.0°C 75% 5.4 mph ESE8.7 kmh ESE 7.4 mph11.9 kmh 29.87 in1011.5 mb 0.00 in0.0 mm 0.00 in0.0 mm 0.00 in0.0 mm
05:01 AM 52.5°F11.4°C 44.4°F6.9°C 74% 4.7 mph SE7.6 kmh SE 6.0 mph9.7 kmh 29.87 in1011.5 mb 0.00 in0.0 mm 0.00 in0.0 mm 0.00 in0.0 mm
04:58 AM 52.9°F11.6°C 44.4°F6.9°C 73% 4.3 mph ESE6.9 kmh ESE 5.1 mph8.2 kmh 29.87 in1011.5 mb 0.00 in0.0 mm 0.00 in0.0 mm 0.00 in0.0 mm
04:56 AM 52.9°F11.6°C 44.4°F6.9°C 73% 3.6 mph SE5.8 kmh SE 4.0 mph6.4 kmh 29.87 in1011.5 mb 0.00 in0.0 mm 0.00 in0.0 mm 0.00 in0.0 mm
04:54 AM 53.2°F11.8°C 44.8°F7.1°C 73% 4.0 mph ESE6.4 kmh ESE 5.1 mph8.2 kmh 29.88 in1011.9 mb 0.00 in0.0 mm 0.00 in0.0 mm 0.00 in0.0 mm
04:52 AM 53.4°F11.9°C 45.0°F7.2°C 73% 3.6 mph ESE5.8 kmh ESE 4.7 mph7.6 kmh 29.87 in1011.5 mb 0.00 in0.0 mm 0.00 in0.0 mm 0.00 in0.0 mm
04:50 AM 53.4°F11.9°C 44.6°F7.0°C 72% 3.6 mph ESE5.8 kmh ESE 4.7 mph7.6 kmh 29.87 in1011.5 mb 0.00 in0.0 mm 0.00 in0.0 mm 0.00 in0.0 mm
04:48 AM 53.8°F12.1°C 45.0°F7.2°C 72% 2.9 mph ESE4.7 kmh ESE 5.1 mph8.2 kmh 29.88 in1011.9 mb 0.00 in0.0 mm 0.00 in0.0 mm 0.00 in0.0 mm
04:46 AM 53.8°F12.1°C 45.0°F7.2°C 72% 1.6 mph ESE2.6 kmh ESE 2.7 mph4.3 kmh 29.87 in1011.5 mb 0.00 in0.0 mm 0.00 in0.0 mm 0.00 in0.0 mm
04:44 AM 54.0°F12.2°C 45.1°F7.3°C 72% 1.3 mph SSE2.1 kmh SSE 2.5 mph4.0 kmh 29.87 in1011.5 mb 0.00 in0.0 mm 0.00 in0.0 mm 0.00 in0.0 mm
04:42 AM 54.1°F12.3°C 45.3°F7.4°C 72% 1.3 mph ENE2.1 kmh ENE 1.3 mph2.1 kmh 29.87 in1011.5 mb 0.00 in0.0 mm 0.00 in0.0 mm 0.00 in0.0 mm
04:39 AM 54.1°F12.3°C 45.3°F7.4°C 72% 2.2 mph SSE3.5 kmh SSE 3.6 mph5.8 kmh 29.87 in1011.5 mb 0.00 in0.0 mm 0.00 in0.0 mm 0.00 in0.0 mm
04:37 AM 54.3°F12.4°C 45.5°F7.5°C 72% 2.5 mph SE4.0 kmh SE 3.8 mph6.1 kmh 29.87 in1011.5 mb 0.00 in0.0 mm 0.00 in0.0 mm 0.00 in0.0 mm
04:35 AM 54.3°F12.4°C 45.9°F7.7°C 73% 2.5 mph SE4.0 kmh SE 3.1 mph5.0 kmh 29.87 in1011.5 mb 0.00 in0.0 mm 0.00 in0.0 mm 0.00 in0.0 mm
04:33 AM 54.3°F12.4°C 46.2°F7.9°C 74% 2.7 mph SE4.3 kmh SE 3.4 mph5.5 kmh 29.87 in1011.5 mb 0.00 in0.0 mm 0.00 in0.0 mm 0.00 in0.0 mm
04:30 AM 54.0°F12.2°C 45.9°F7.7°C 74% 2.2 mph SE3.5 kmh SE 5.1 mph8.2 kmh 29.87 in1011.5 mb 0.00 in0.0 mm 0.00 in0.0 mm 0.00 in0.0 mm
04:28 AM 53.8°F12.1°C 46.0°F7.8°C 75% 1.8 mph WSW2.9 kmh WSW 1.3 mph2.1 kmh 29.86 in1011.2 mb 0.00 in0.0 mm 0.00 in0.0 mm 0.00 in0.0 mm
04:26 AM 53.8°F12.1°C 46.0°F7.8°C 75% 2.9 mph SSE4.7 kmh SSE 2.5 mph4.0 kmh 29.86 in1011.2 mb 0.00 in0.0 mm 0.00 in0.0 mm 0.00 in0.0 mm
04:24 AM 53.2°F11.8°C 45.5°F7.5°C 75% 4.0 mph SE6.4 kmh SE 5.1 mph8.2 kmh 29.86 in1011.2 mb 0.00 in0.0 mm 0.00 in0.0 mm 0.00 in0.0 mm
04:22 AM 52.9°F11.6°C 45.1°F7.3°C 75% 4.5 mph SE7.2 kmh SE 5.8 mph9.3 kmh 29.86 in1011.2 mb 0.00 in0.0 mm 0.00 in0.0 mm 0.00 in0.0 mm
04:19 AM 52.9°F11.6°C 45.1°F7.3°C 75% 5.4 mph ESE8.7 kmh ESE 6.0 mph9.7 kmh 29.86 in1011.2 mb 0.00 in0.0 mm 0.00 in0.0 mm 0.00 in0.0 mm
04:17 AM 52.9°F11.6°C 45.1°F7.3°C 75% 5.4 mph ESE8.7 kmh ESE 6.9 mph11.1 kmh 29.86 in1011.2 mb 0.00 in0.0 mm 0.00 in0.0 mm 0.00 in0.0 mm
04:15 AM 52.9°F11.6°C 44.8°F7.1°C 74% 5.4 mph ESE8.7 kmh ESE 6.0 mph9.7 kmh 29.86 in1011.2 mb 0.00 in0.0 mm 0.00 in0.0 mm 0.00 in0.0 mm
04:13 AM 53.2°F11.8°C 45.1°F7.3°C 74% 5.4 mph ESE8.7 kmh ESE 7.6 mph12.2 kmh 29.86 in1011.2 mb 0.00 in0.0 mm 0.00 in0.0 mm 0.00 in0.0 mm
04:10 AM 53.4°F11.9°C 45.0°F7.2°C 73% 4.5 mph SE7.2 kmh SE 7.8 mph12.6 kmh 29.86 in1011.2 mb 0.00 in0.0 mm 0.00 in0.0 mm 0.00 in0.0 mm
04:08 AM 53.4°F11.9°C 45.0°F7.2°C 73% 3.4 mph SSE5.5 kmh SSE 4.0 mph6.4 kmh 29.86 in1011.2 mb 0.00 in0.0 mm 0.00 in0.0 mm 0.00 in0.0 mm
04:06 AM 53.8°F12.1°C 45.3°F7.4°C 73% 4.5 mph ESE7.2 kmh ESE 5.4 mph8.7 kmh 29.86 in1011.2 mb 0.00 in0.0 mm 0.00 in0.0 mm 0.00 in0.0 mm
04:04 AM 53.8°F12.1°C 45.3°F7.4°C 73% 4.7 mph SE7.6 kmh SE 5.8 mph9.3 kmh 29.86 in1011.2 mb 0.00 in0.0 mm 0.00 in0.0 mm 0.00 in0.0 mm
04:01 AM 53.8°F12.1°C 45.3°F7.4°C 73% 4.9 mph SE7.9 kmh SE 7.2 mph11.6 kmh 29.86 in1011.2 mb 0.00 in0.0 mm 0.00 in0.0 mm 0.00 in0.0 mm
03:59 AM 53.8°F12.1°C 45.3°F7.4°C 73% 4.5 mph SE7.2 kmh SE 6.0 mph9.7 kmh 29.86 in1011.2 mb 0.00 in0.0 mm 0.00 in0.0 mm 0.00 in0.0 mm
03:57 AM 53.8°F12.1°C 45.0°F7.2°C 72% 4.3 mph SE6.9 kmh SE 5.1 mph8.2 kmh 29.86 in1011.2 mb 0.00 in0.0 mm 0.00 in0.0 mm 0.00 in0.0 mm
03:54 AM 53.8°F12.1°C 44.6°F7.0°C 71% 4.3 mph ESE6.9 kmh ESE 4.7 mph7.6 kmh 29.86 in1011.2 mb 0.00 in0.0 mm 0.00 in0.0 mm 0.00 in0.0 mm
03:52 AM 54.0°F12.2°C 44.8°F7.1°C 71% 4.5 mph ESE7.2 kmh ESE 6.5 mph10.5 kmh 29.86 in1011.2 mb 0.00 in0.0 mm 0.00 in0.0 mm 0.00 in0.0 mm
03:50 AM 53.8°F12.1°C 44.6°F7.0°C 71% 3.1 mph ESE5.0 kmh ESE 4.7 mph7.6 kmh 29.86 in1011.2 mb 0.00 in0.0 mm 0.00 in0.0 mm 0.00 in0.0 mm
03:48 AM 53.4°F11.9°C 44.2°F6.8°C 71% 2.2 mph SSE3.5 kmh SSE 3.4 mph5.5 kmh 29.86 in1011.2 mb 0.00 in0.0 mm 0.00 in0.0 mm 0.00 in0.0 mm
03:46 AM 53.6°F12.0°C 44.4°F6.9°C 71% 1.6 mph SE2.6 kmh SE 2.5 mph4.0 kmh 29.86 in1011.2 mb 0.00 in0.0 mm 0.00 in0.0 mm 0.00 in0.0 mm
03:43 AM 53.8°F12.1°C 44.6°F7.0°C 71% 1.8 mph SSE2.9 kmh SSE 2.0 mph3.2 kmh 29.86 in1011.2 mb 0.00 in0.0 mm 0.00 in0.0 mm 0.00 in0.0 mm
03:41 AM 53.8°F12.1°C 44.6°F7.0°C 71% 1.8 mph SSE2.9 kmh SSE 2.0 mph3.2 kmh 29.86 in1011.2 mb 0.00 in0.0 mm 0.00 in0.0 mm 0.00 in0.0 mm
03:39 AM 54.0°F12.2°C 44.8°F7.1°C 71% 2.0 mph SSE3.2 kmh SSE 2.9 mph4.7 kmh 29.86 in1011.2 mb 0.00 in0.0 mm 0.00 in0.0 mm 0.00 in0.0 mm
03:37 AM 54.1°F12.3°C 45.0°F7.2°C 71% 1.3 mph SE2.1 kmh SE 1.8 mph2.9 kmh 29.86 in1011.2 mb 0.00 in0.0 mm 0.00 in0.0 mm 0.00 in0.0 mm
03:35 AM 54.3°F12.4°C 45.5°F7.5°C 72% 1.3 mph SE2.1 kmh SE 1.8 mph2.9 kmh 29.86 in1011.2 mb 0.00 in0.0 mm 0.00 in0.0 mm 0.00 in0.0 mm
03:32 AM 54.3°F12.4°C 45.5°F7.5°C 72% 1.1 mph SE1.8 kmh SE 1.6 mph2.6 kmh 29.86 in1011.2 mb 0.00 in0.0 mm 0.00 in0.0 mm 0.00 in0.0 mm
03:30 AM 54.5°F12.5°C 45.7°F7.6°C 72% 1.3 mph SSE2.1 kmh SSE 1.3 mph2.1 kmh 29.86 in1011.2 mb 0.00 in0.0 mm 0.00 in0.0 mm 0.00 in0.0 mm
03:28 AM 54.7°F12.6°C 45.9°F7.7°C 72% 2.2 mph SSE3.5 kmh SSE 3.8 mph6.1 kmh 29.86 in1011.2 mb 0.00 in0.0 mm 0.00 in0.0 mm 0.00 in0.0 mm
03:26 AM 54.7°F12.6°C 45.9°F7.7°C 72% 2.2 mph ESE3.5 kmh ESE 4.9 mph7.9 kmh 29.86 in1011.2 mb 0.00 in0.0 mm 0.00 in0.0 mm 0.00 in0.0 mm
03:23 AM 54.7°F12.6°C 45.9°F7.7°C 72% 1.6 mph SE2.6 kmh SE 1.6 mph2.6 kmh 29.86 in1011.2 mb 0.00 in0.0 mm 0.00 in0.0 mm 0.00 in0.0 mm
03:21 AM 54.7°F12.6°C 45.9°F7.7°C 72% 2.5 mph SSE4.0 kmh SSE 2.9 mph4.7 kmh 29.86 in1011.2 mb 0.00 in0.0 mm 0.00 in0.0 mm 0.00 in0.0 mm
03:19 AM 54.7°F12.6°C 45.9°F7.7°C 72% 3.4 mph SE5.5 kmh SE 3.8 mph6.1 kmh 29.85 in1010.8 mb 0.00 in0.0 mm 0.00 in0.0 mm 0.00 in0.0 mm
03:17 AM 54.9°F12.7°C 46.0°F7.8°C 72% 3.4 mph ESE5.5 kmh ESE 4.3 mph6.9 kmh 29.86 in1011.2 mb 0.00 in0.0 mm 0.00 in0.0 mm 0.00 in0.0 mm
03:15 AM 54.9°F12.7°C 46.0°F7.8°C 72% 3.6 mph ESE5.8 kmh ESE 3.6 mph5.8 kmh 29.85 in1010.8 mb 0.00 in0.0 mm 0.00 in0.0 mm 0.00 in0.0 mm
03:13 AM 54.7°F12.6°C 46.2°F7.9°C 73% 4.0 mph SE6.4 kmh SE 5.4 mph8.7 kmh 29.85 in1010.8 mb 0.00 in0.0 mm 0.00 in0.0 mm 0.00 in0.0 mm
03:10 AM 54.7°F12.6°C 46.2°F7.9°C 73% 3.8 mph SE6.1 kmh SE 3.6 mph5.8 kmh 29.85 in1010.8 mb 0.00 in0.0 mm 0.00 in0.0 mm 0.00 in0.0 mm
03:08 AM 54.5°F12.5°C 46.0°F7.8°C 73% 4.9 mph SE7.9 kmh SE 6.0 mph9.7 kmh 29.85 in1010.8 mb 0.00 in0.0 mm 0.00 in0.0 mm 0.00 in0.0 mm
03:06 AM 54.5°F12.5°C 46.4°F8.0°C 74% 4.5 mph SE7.2 kmh SE 6.0 mph9.7 kmh 29.85 in1010.8 mb 0.00 in0.0 mm 0.00 in0.0 mm 0.00 in0.0 mm
03:04 AM 54.5°F12.5°C 46.4°F8.0°C 74% 4.7 mph ESE7.6 kmh ESE 5.8 mph9.3 kmh 29.85 in1010.8 mb 0.00 in0.0 mm 0.00 in0.0 mm 0.00 in0.0 mm
03:02 AM 54.7°F12.6°C 46.6°F8.1°C 74% 4.3 mph SE6.9 kmh SE 4.7 mph7.6 kmh 29.85 in1010.8 mb 0.00 in0.0 mm 0.00 in0.0 mm 0.00 in0.0 mm
03:00 AM 54.5°F12.5°C 46.8°F8.2°C 75% 4.7 mph SE7.6 kmh SE 6.0 mph9.7 kmh 29.85 in1010.8 mb 0.00 in0.0 mm 0.00 in0.0 mm 0.00 in0.0 mm
02:57 AM 54.3°F12.4°C 46.9°F8.3°C 76% 4.9 mph SE7.9 kmh SE 6.0 mph9.7 kmh 29.85 in1010.8 mb 0.00 in0.0 mm 0.00 in0.0 mm 0.00 in0.0 mm
02:55 AM 54.1°F12.3°C 46.8°F8.2°C 76% 4.5 mph SE7.2 kmh SE 6.3 mph10.1 kmh 29.85 in1010.8 mb 0.00 in0.0 mm 0.00 in0.0 mm 0.00 in0.0 mm
02:53 AM 54.1°F12.3°C 47.1°F8.4°C 77% 3.8 mph SE6.1 kmh SE 4.7 mph7.6 kmh 29.85 in1010.8 mb 0.00 in0.0 mm 0.00 in0.0 mm 0.00 in0.0 mm
02:51 AM 54.1°F12.3°C 47.1°F8.4°C 77% 3.8 mph SE6.1 kmh SE 5.4 mph8.7 kmh 29.85 in1010.8 mb 0.00 in0.0 mm 0.00 in0.0 mm 0.00 in0.0 mm
02:49 AM 54.0°F12.2°C 47.3°F8.5°C 78% 4.3 mph ESE6.9 kmh ESE 6.5 mph10.5 kmh 29.85 in1010.8 mb 0.00 in0.0 mm 0.00 in0.0 mm 0.00 in0.0 mm
02:47 AM 54.0°F12.2°C 47.3°F8.5°C 78% 4.5 mph ESE7.2 kmh ESE 6.5 mph10.5 kmh 29.85 in1010.8 mb 0.00 in0.0 mm 0.00 in0.0 mm 0.00 in0.0 mm
02:45 AM 53.8°F12.1°C 47.5°F8.6°C 79% 4.7 mph SE7.6 kmh SE 7.2 mph11.6 kmh 29.85 in1010.8 mb 0.00 in0.0 mm 0.00 in0.0 mm 0.00 in0.0 mm
02:43 AM 53.4°F11.9°C 47.5°F8.6°C 80% 4.5 mph SE7.2 kmh SE 8.5 mph13.7 kmh 29.85 in1010.8 mb 0.00 in0.0 mm 0.00 in0.0 mm 0.00 in0.0 mm
02:40 AM 53.4°F11.9°C 47.7°F8.7°C 81% 3.8 mph ESE6.1 kmh ESE 4.9 mph7.9 kmh 29.85 in1010.8 mb 0.00 in0.0 mm 0.00 in0.0 mm 0.00 in0.0 mm
02:38 AM 53.4°F11.9°C 48.0°F8.9°C 82% 4.5 mph ESE7.2 kmh ESE 5.4 mph8.7 kmh 29.85 in1010.8 mb 0.00 in0.0 mm 0.00 in0.0 mm 0.00 in0.0 mm
02:36 AM 52.9°F11.6°C 47.5°F8.6°C 82% 4.7 mph SE7.6 kmh SE 8.3 mph13.4 kmh 29.84 in1010.5 mb 0.00 in0.0 mm 0.00 in0.0 mm 0.00 in0.0 mm
02:34 AM 52.5°F11.4°C 47.5°F8.6°C 83% 3.8 mph ESE6.1 kmh ESE 7.2 mph11.6 kmh 29.84 in1010.5 mb 0.00 in0.0 mm 0.00 in0.0 mm 0.00 in0.0 mm
02:32 AM 52.3°F11.3°C 47.3°F8.5°C 83% 2.2 mph SSE3.5 kmh SSE 2.0 mph3.2 kmh 29.85 in1010.8 mb 0.00 in0.0 mm 0.00 in0.0 mm 0.00 in0.0 mm
02:29 AM 52.3°F11.3°C 47.3°F8.5°C 83% 3.4 mph SSE5.5 kmh SSE 3.8 mph6.1 kmh 29.84 in1010.5 mb 0.00 in0.0 mm 0.00 in0.0 mm 0.00 in0.0 mm
02:27 AM 52.2°F11.2°C 47.1°F8.4°C 83% 4.0 mph ESE6.4 kmh ESE 4.0 mph6.4 kmh 29.84 in1010.5 mb 0.00 in0.0 mm 0.00 in0.0 mm 0.00 in0.0 mm
02:25 AM 52.2°F11.2°C 47.1°F8.4°C 83% 4.5 mph ESE7.2 kmh ESE 4.7 mph7.6 kmh 29.84 in1010.5 mb 0.00 in0.0 mm 0.00 in0.0 mm 0.00 in0.0 mm
02:23 AM 52.3°F11.3°C 47.3°F8.5°C 83% 5.4 mph E8.7 kmh E 5.1 mph8.2 kmh 29.84 in1010.5 mb 0.00 in0.0 mm 0.00 in0.0 mm 0.00 in0.0 mm
02:21 AM 52.2°F11.2°C 47.1°F8.4°C 83% 6.5 mph ESE10.5 kmh ESE 5.1 mph8.2 kmh 29.84 in1010.5 mb 0.00 in0.0 mm 0.00 in0.0 mm 0.00 in0.0 mm
02:18 AM 52.0°F11.1°C 46.9°F8.3°C 83% 8.5 mph ESE13.7 kmh ESE 10.5 mph16.9 kmh 29.84 in1010.5 mb 0.00 in0.0 mm 0.00 in0.0 mm 0.00 in0.0 mm
02:16 AM 52.2°F11.2°C 47.1°F8.4°C 83% 7.8 mph SSE12.6 kmh SSE 9.8 mph15.8 kmh 29.84 in1010.5 mb 0.00 in0.0 mm 0.00 in0.0 mm 0.00 in0.0 mm
02:14 AM 52.2°F11.2°C 47.1°F8.4°C 83% 8.3 mph ESE13.4 kmh ESE 11.0 mph17.7 kmh 29.83 in1010.2 mb 0.00 in0.0 mm 0.00 in0.0 mm 0.00 in0.0 mm
02:12 AM 52.2°F11.2°C 47.1°F8.4°C 83% 7.6 mph ESE12.2 kmh ESE 10.7 mph17.2 kmh 29.84 in1010.5 mb 0.00 in0.0 mm 0.00 in0.0 mm 0.00 in0.0 mm
02:10 AM 52.0°F11.1°C 46.9°F8.3°C 83% 7.2 mph ESE11.6 kmh ESE 10.3 mph16.6 kmh 29.83 in1010.2 mb 0.00 in0.0 mm 0.00 in0.0 mm 0.00 in0.0 mm
02:07 AM 52.0°F11.1°C 46.9°F8.3°C 83% 6.3 mph ESE10.1 kmh ESE 10.5 mph16.9 kmh 29.83 in1010.2 mb 0.00 in0.0 mm 0.00 in0.0 mm 0.00 in0.0 mm
02:05 AM 52.0°F11.1°C 46.9°F8.3°C 83% 4.9 mph ESE7.9 kmh ESE 8.7 mph14.0 kmh 29.84 in1010.5 mb 0.00 in0.0 mm 0.00 in0.0 mm 0.00 in0.0 mm
02:03 AM 52.2°F11.2°C 47.1°F8.4°C 83% 6.7 mph ESE10.8 kmh ESE -- 29.84 in1010.5 mb 0.00 in0.0 mm 0.00 in0.0 mm 0.00 in0.0 mm
01:59 AM 52.2°F11.2°C 47.1°F8.4°C 83% 6.7 mph ESE10.8 kmh ESE 7.8 mph12.6 kmh 29.84 in1010.5 mb 0.00 in0.0 mm 0.00 in0.0 mm 0.00 in0.0 mm
01:57 AM 52.2°F11.2°C 47.1°F8.4°C 83% 7.4 mph E11.9 kmh E 11.0 mph17.7 kmh 29.84 in1010.5 mb 0.00 in0.0 mm 0.00 in0.0 mm 0.00 in0.0 mm
01:55 AM 52.2°F11.2°C 46.8°F8.2°C 82% 6.7 mph SE10.8 kmh SE 9.2 mph14.8 kmh 29.84 in1010.5 mb 0.00 in0.0 mm 0.00 in0.0 mm 0.00 in0.0 mm
01:52 AM 52.2°F11.2°C 46.8°F8.2°C 82% 6.7 mph SE10.8 kmh SE 8.7 mph14.0 kmh 29.84 in1010.5 mb 0.00 in0.0 mm 0.00 in0.0 mm 0.00 in0.0 mm
01:50 AM 52.0°F11.1°C 46.6°F8.1°C 82% 6.9 mph ESE11.1 kmh ESE 8.5 mph13.7 kmh 29.84 in1010.5 mb 0.00 in0.0 mm 0.00 in0.0 mm 0.00 in0.0 mm
01:48 AM 52.2°F11.2°C 46.6°F8.1°C 81% 6.9 mph SE11.1 kmh SE 8.3 mph13.4 kmh 29.83 in1010.2 mb 0.00 in0.0 mm 0.00 in0.0 mm 0.00 in0.0 mm
01:46 AM 52.2°F11.2°C 46.6°F8.1°C 81% 7.2 mph SE11.6 kmh SE 9.8 mph15.8 kmh 29.84 in1010.5 mb 0.00 in0.0 mm 0.00 in0.0 mm 0.00 in0.0 mm
01:44 AM 52.3°F11.3°C 46.8°F8.2°C 81% 6.3 mph ESE10.1 kmh ESE 11.2 mph18.0 kmh 29.83 in1010.2 mb 0.00 in0.0 mm 0.00 in0.0 mm 0.00 in0.0 mm
01:41 AM 52.3°F11.3°C 46.8°F8.2°C 81% 6.3 mph SE10.1 kmh SE 7.8 mph12.6 kmh 29.83 in1010.2 mb 0.00 in0.0 mm 0.00 in0.0 mm 0.00 in0.0 mm
01:39 AM 52.5°F11.4°C 46.9°F8.3°C 81% 6.5 mph ESE10.5 kmh ESE 9.8 mph15.8 kmh 29.84 in1010.5 mb 0.00 in0.0 mm 0.00 in0.0 mm 0.00 in0.0 mm
01:37 AM 52.5°F11.4°C 46.9°F8.3°C 81% 6.0 mph ESE9.7 kmh ESE 9.6 mph15.4 kmh 29.84 in1010.5 mb 0.00 in0.0 mm 0.00 in0.0 mm 0.00 in0.0 mm
01:35 AM 52.5°F11.4°C 47.1°F8.4°C 82% 6.7 mph ESE10.8 kmh ESE 10.1 mph16.3 kmh 29.83 in1010.2 mb 0.00 in0.0 mm 0.00 in0.0 mm 0.00 in0.0 mm
01:33 AM 52.3°F11.3°C 46.9°F8.3°C 82% 6.5 mph ESE10.5 kmh ESE 7.8 mph12.6 kmh 29.84 in1010.5 mb 0.00 in0.0 mm 0.00 in0.0 mm 0.00 in0.0 mm
01:30 AM 52.5°F11.4°C 47.1°F8.4°C 82% 6.9 mph ESE11.1 kmh ESE 9.4 mph15.1 kmh 29.84 in1010.5 mb 0.00 in0.0 mm 0.00 in0.0 mm 0.00 in0.0 mm
01:28 AM 52.3°F11.3°C 46.9°F8.3°C 82% 6.9 mph ESE11.1 kmh ESE 9.6 mph15.4 kmh 29.84 in1010.5 mb 0.00 in0.0 mm 0.00 in0.0 mm 0.00 in0.0 mm
01:26 AM 52.3°F11.3°C 46.9°F8.3°C 82% 6.7 mph ESE10.8 kmh ESE 7.8 mph12.6 kmh 29.84 in1010.5 mb 0.00 in0.0 mm 0.00 in0.0 mm 0.00 in0.0 mm
01:24 AM 52.2°F11.2°C 46.8°F8.2°C 82% 6.7 mph ESE10.8 kmh ESE 8.9 mph14.3 kmh 29.84 in1010.5 mb 0.00 in0.0 mm 0.00 in0.0 mm 0.00 in0.0 mm
01:21 AM 52.2°F11.2°C 46.8°F8.2°C 82% 7.2 mph ESE11.6 kmh ESE 11.4 mph18.3 kmh 29.84 in1010.5 mb 0.00 in0.0 mm 0.00 in0.0 mm 0.00 in0.0 mm
01:19 AM 52.0°F11.1°C 46.6°F8.1°C 82% 6.0 mph SE9.7 kmh SE 6.9 mph11.1 kmh 29.84 in1010.5 mb 0.00 in0.0 mm 0.00 in0.0 mm 0.00 in0.0 mm
01:17 AM 52.0°F11.1°C 46.6°F8.1°C 82% 6.0 mph E9.7 kmh E 7.2 mph11.6 kmh 29.84 in1010.5 mb 0.00 in0.0 mm 0.00 in0.0 mm 0.00 in0.0 mm
01:15 AM 52.0°F11.1°C 46.4°F8.0°C 81% 6.9 mph ESE11.1 kmh ESE 9.4 mph15.1 kmh 29.84 in1010.5 mb 0.00 in0.0 mm 0.00 in0.0 mm 0.00 in0.0 mm
01:13 AM 52.0°F11.1°C 46.4°F8.0°C 81% 6.7 mph ESE10.8 kmh ESE 8.5 mph13.7 kmh 29.84 in1010.5 mb 0.00 in0.0 mm 0.00 in0.0 mm 0.00 in0.0 mm
01:10 AM 51.8°F11.0°C 46.2°F7.9°C 81% 6.9 mph ESE11.1 kmh ESE 8.9 mph14.3 kmh 29.84 in1010.5 mb 0.00 in0.0 mm 0.00 in0.0 mm 0.00 in0.0 mm
01:08 AM 51.6°F10.9°C 46.0°F7.8°C 81% 7.6 mph ESE12.2 kmh ESE 11.4 mph18.3 kmh 29.84 in1010.5 mb 0.00 in0.0 mm 0.00 in0.0 mm 0.00 in0.0 mm
01:06 AM 51.6°F10.9°C 45.7°F7.6°C 80% 6.3 mph ESE10.1 kmh ESE 9.2 mph14.8 kmh 29.84 in1010.5 mb 0.00 in0.0 mm 0.00 in0.0 mm 0.00 in0.0 mm
01:04 AM 51.6°F10.9°C 45.7°F7.6°C 80% 5.6 mph SE9.0 kmh SE 7.6 mph12.2 kmh 29.84 in1010.5 mb 0.00 in0.0 mm 0.00 in0.0 mm 0.00 in0.0 mm
01:01 AM 51.6°F10.9°C 45.7°F7.6°C 80% 5.8 mph ESE9.3 kmh ESE 8.5 mph13.7 kmh 29.84 in1010.5 mb 0.00 in0.0 mm 0.00 in0.0 mm 0.00 in0.0 mm
12:59 AM 51.6°F10.9°C 45.3°F7.4°C 79% 5.6 mph ESE9.0 kmh ESE 6.7 mph10.8 kmh 29.84 in1010.5 mb 0.00 in0.0 mm 0.00 in0.0 mm 0.00 in0.0 mm
12:57 AM 51.6°F10.9°C 45.3°F7.4°C 79% 5.6 mph ESE9.0 kmh ESE 6.3 mph10.1 kmh 29.85 in1010.8 mb 0.00 in0.0 mm 0.00 in0.0 mm 0.00 in0.0 mm
12:55 AM 51.6°F10.9°C 45.3°F7.4°C 79% 5.6 mph ESE9.0 kmh ESE 6.0 mph9.7 kmh 29.85 in1010.8 mb 0.00 in0.0 mm 0.00 in0.0 mm 0.00 in0.0 mm
12:52 AM 52.0°F11.1°C 45.7°F7.6°C 79% 6.0 mph ESE9.7 kmh ESE 7.6 mph12.2 kmh 29.85 in1010.8 mb 0.00 in0.0 mm 0.00 in0.0 mm 0.00 in0.0 mm
12:50 AM 52.2°F11.2°C 45.9°F7.7°C 79% 5.4 mph SE8.7 kmh SE 6.5 mph10.5 kmh 29.85 in1010.8 mb 0.00 in0.0 mm 0.00 in0.0 mm 0.00 in0.0 mm
12:48 AM 52.2°F11.2°C 45.9°F7.7°C 79% 5.4 mph SE8.7 kmh SE 6.3 mph10.1 kmh 29.85 in1010.8 mb 0.00 in0.0 mm 0.00 in0.0 mm 0.00 in0.0 mm
12:46 AM 52.2°F11.2°C 45.9°F7.7°C 79% 5.8 mph ESE9.3 kmh ESE 7.6 mph12.2 kmh 29.85 in1010.8 mb 0.00 in0.0 mm 0.00 in0.0 mm 0.00 in0.0 mm
12:44 AM 52.0°F11.1°C 45.7°F7.6°C 79% 6.0 mph ESE9.7 kmh ESE 7.4 mph11.9 kmh 29.85 in1010.8 mb 0.00 in0.0 mm 0.00 in0.0 mm 0.00 in0.0 mm
12:41 AM 52.3°F11.3°C 45.7°F7.6°C 78% 5.4 mph ESE8.7 kmh ESE 8.9 mph14.3 kmh 29.85 in1010.8 mb 0.00 in0.0 mm 0.00 in0.0 mm 0.00 in0.0 mm
12:39 AM 52.7°F11.5°C 46.0°F7.8°C 78% 5.4 mph ESE8.7 kmh ESE 6.9 mph11.1 kmh 29.85 in1010.8 mb 0.00 in0.0 mm 0.00 in0.0 mm 0.00 in0.0 mm
12:37 AM 52.9°F11.6°C 46.6°F8.1°C 79% 4.9 mph SE7.9 kmh SE 6.0 mph9.7 kmh 29.85 in1010.8 mb 0.00 in0.0 mm 0.00 in0.0 mm 0.00 in0.0 mm
12:35 AM 52.9°F11.6°C 46.6°F8.1°C 79% 4.7 mph SE7.6 kmh SE 6.3 mph10.1 kmh 29.85 in1010.8 mb 0.00 in0.0 mm 0.00 in0.0 mm 0.00 in0.0 mm
12:33 AM 52.9°F11.6°C 46.9°F8.3°C 80% 4.0 mph ESE6.4 kmh ESE 5.4 mph8.7 kmh 29.85 in1010.8 mb 0.00 in0.0 mm 0.00 in0.0 mm 0.00 in0.0 mm
12:30 AM 52.7°F11.5°C 46.8°F8.2°C 80% 3.4 mph SE5.5 kmh SE 4.3 mph6.9 kmh 29.85 in1010.8 mb 0.00 in0.0 mm 0.00 in0.0 mm 0.00 in0.0 mm
12:28 AM 52.7°F11.5°C 46.8°F8.2°C 80% 3.4 mph SSE5.5 kmh SSE 4.7 mph7.6 kmh 29.85 in1010.8 mb 0.00 in0.0 mm 0.00 in0.0 mm 0.00 in0.0 mm
12:26 AM 52.5°F11.4°C 46.6°F8.1°C 80% 3.8 mph SSE6.1 kmh SSE 6.3 mph10.1 kmh 29.85 in1010.8 mb 0.00 in0.0 mm 0.00 in0.0 mm 0.00 in0.0 mm
12:24 AM 52.5°F11.4°C 46.9°F8.3°C 81% 2.7 mph ESE4.3 kmh ESE 4.7 mph7.6 kmh 29.85 in1010.8 mb 0.00 in0.0 mm 0.00 in0.0 mm 0.00 in0.0 mm
12:21 AM 52.3°F11.3°C 46.8°F8.2°C 81% 3.8 mph SE6.1 kmh SE 6.0 mph9.7 kmh 29.85 in1010.8 mb 0.00 in0.0 mm 0.00 in0.0 mm 0.00 in0.0 mm
12:19 AM 52.3°F11.3°C 46.8°F8.2°C 81% 5.6 mph ESE9.0 kmh ESE 5.8 mph9.3 kmh 29.85 in1010.8 mb 0.00 in0.0 mm 0.00 in0.0 mm 0.00 in0.0 mm
12:17 AM 52.2°F11.2°C 46.6°F8.1°C 81% 6.0 mph ESE9.7 kmh ESE 8.9 mph14.3 kmh 29.85 in1010.8 mb 0.00 in0.0 mm 0.00 in0.0 mm 0.00 in0.0 mm
12:15 AM 52.0°F11.1°C 46.4°F8.0°C 81% 4.9 mph ESE7.9 kmh ESE 5.8 mph9.3 kmh 29.85 in1010.8 mb 0.00 in0.0 mm 0.00 in0.0 mm 0.00 in0.0 mm
12:13 AM 52.0°F11.1°C 46.4°F8.0°C 81% 4.9 mph SE7.9 kmh SE 5.8 mph9.3 kmh 29.85 in1010.8 mb 0.00 in0.0 mm 0.00 in0.0 mm 0.00 in0.0 mm
12:11 AM 51.8°F11.0°C 46.2°F7.9°C 81% 5.4 mph ESE8.7 kmh ESE 6.7 mph10.8 kmh 29.85 in1010.8 mb 0.00 in0.0 mm 0.00 in0.0 mm 0.00 in0.0 mm
12:08 AM 51.6°F10.9°C 46.0°F7.8°C 81% 5.6 mph ESE9.0 kmh ESE 6.5 mph10.5 kmh 29.85 in1010.8 mb 0.00 in0.0 mm 0.00 in0.0 mm 0.00 in0.0 mm
12:06 AM 51.8°F11.0°C 45.9°F7.7°C 80% 5.6 mph SE9.0 kmh SE 6.0 mph9.7 kmh 29.85 in1010.8 mb 0.00 in0.0 mm 0.00 in0.0 mm 0.00 in0.0 mm
12:04 AM 52.2°F11.2°C 46.2°F7.9°C 80% 5.6 mph SE9.0 kmh SE 6.5 mph10.5 kmh 29.85 in1010.8 mb 0.00 in0.0 mm 0.00 in0.0 mm 0.00 in0.0 mm
12:02 AM 52.5°F11.4°C 46.6°F8.1°C 80% 5.4 mph ESE8.7 kmh ESE 6.9 mph11.1 kmh 29.85 in1010.8 mb 0.00 in0.0 mm 0.00 in0.0 mm 0.00 in0.0 mm
12:00 AM 52.9°F11.6°C 46.9°F8.3°C 80% 5.4 mph ESE8.7 kmh ESE 5.4 mph8.7 kmh 29.85 in1010.8 mb 0.00 in0.0 mm 0.00 in0.0 mm 0.00 in0.0 mm